PWSweather.com
Personal Weather Stations
Station Observations
OZIERI
Punta Idda, OzieriIT

Punta IddaOzieriIT

Lat: 40.584142, Lon: 9.007657999999992

Elevation: 1483

Station Type: Lacrosse ws2350

www.ozierimeteo.altervista.com

High Low Average
Temperature 68.2°F20.1°C 55.0°F12.8°C 60.5°F15.8°C
Dew Point 58.1°F14.5°C 51.6°F10.9°C 54.5°F12.5°C
Winds 5.6 mph 9.0 kmh Calm Calm 2.0 mph S3.2 kmh S
Wind Gusts 13.0 mph20.9 kmh -- 3.0 mph4.8 kmh
Humidity 90% 65% 81%
Pressure 30.14 in1020.7 mb 30.00 in1015.9 mb -
Precipitation 0.00 in0.0 mm - -
Hour Temp Dew Point Humidity Winds Wind Gusts Pressure Precip Precip Rate Daily Precip Total
12:00 AM 55.2°F12.9°C 51.8°F11.0°C 88% 2.0 mph SE3.2 kmh SE 2.9 mph4.7 kmh 30.01 in1016.3 mb 0.00 in0.0 mm 0.00 in0.0 mm 0.00 in0.0 mm
12:02 AM 55.2°F12.9°C 51.8°F11.0°C 88% 2.2 mph SSE3.5 kmh SSE 2.7 mph4.3 kmh 30.00 in1015.9 mb 0.00 in0.0 mm 0.00 in0.0 mm 0.00 in0.0 mm
12:04 AM 55.2°F12.9°C 51.8°F11.0°C 88% 1.3 mph SE2.1 kmh SE 2.0 mph3.2 kmh 30.01 in1016.3 mb 0.00 in0.0 mm 0.00 in0.0 mm 0.00 in0.0 mm
12:06 AM 55.2°F12.9°C 51.8°F11.0°C 88% 1.3 mph ESE2.1 kmh ESE 2.7 mph4.3 kmh 30.00 in1015.9 mb 0.00 in0.0 mm 0.00 in0.0 mm 0.00 in0.0 mm
12:08 AM 55.2°F12.9°C 51.8°F11.0°C 88% 1.8 mph ESE2.9 kmh ESE 3.1 mph5.0 kmh 30.01 in1016.3 mb 0.00 in0.0 mm 0.00 in0.0 mm 0.00 in0.0 mm
12:10 AM 55.2°F12.9°C 51.8°F11.0°C 88% 1.6 mph ESE2.6 kmh ESE 2.0 mph3.2 kmh 30.00 in1015.9 mb 0.00 in0.0 mm 0.00 in0.0 mm 0.00 in0.0 mm
12:13 AM 55.2°F12.9°C 51.8°F11.0°C 88% 1.1 mph SE1.8 kmh SE 1.6 mph2.6 kmh 30.01 in1016.3 mb 0.00 in0.0 mm 0.00 in0.0 mm 0.00 in0.0 mm
12:15 AM 55.2°F12.9°C 51.8°F11.0°C 88% 0.7 mph ESE1.1 kmh ESE 1.3 mph2.1 kmh 30.01 in1016.3 mb 0.00 in0.0 mm 0.00 in0.0 mm 0.00 in0.0 mm
12:17 AM 55.2°F12.9°C 51.8°F11.0°C 88% 0.9 mph ESE1.4 kmh ESE 2.2 mph3.5 kmh 30.00 in1015.9 mb 0.00 in0.0 mm 0.00 in0.0 mm 0.00 in0.0 mm
12:19 AM 55.2°F12.9°C 51.8°F11.0°C 88% 0.9 mph SSE1.4 kmh SSE 1.6 mph2.6 kmh 30.01 in1016.3 mb 0.00 in0.0 mm 0.00 in0.0 mm 0.00 in0.0 mm
12:22 AM 55.2°F12.9°C 51.8°F11.0°C 88% 0.9 mph ESE1.4 kmh ESE 1.6 mph2.6 kmh 30.01 in1016.3 mb 0.00 in0.0 mm 0.00 in0.0 mm 0.00 in0.0 mm
12:24 AM 55.2°F12.9°C 51.8°F11.0°C 88% 0.7 mph ESE1.1 kmh ESE 1.3 mph2.1 kmh 30.00 in1015.9 mb 0.00 in0.0 mm 0.00 in0.0 mm 0.00 in0.0 mm
12:26 AM 55.2°F12.9°C 51.8°F11.0°C 88% 0.7 mph SE1.1 kmh SE 1.8 mph2.9 kmh 30.00 in1015.9 mb 0.00 in0.0 mm 0.00 in0.0 mm 0.00 in0.0 mm
12:28 AM 55.4°F13.0°C 52.0°F11.1°C 88% 1.1 mph SE1.8 kmh SE 2.2 mph3.5 kmh 30.01 in1016.3 mb 0.00 in0.0 mm 0.00 in0.0 mm 0.00 in0.0 mm
12:30 AM 55.6°F13.1°C 52.2°F11.2°C 88% 0.9 mph ESE1.4 kmh ESE 1.8 mph2.9 kmh 30.01 in1016.3 mb 0.00 in0.0 mm 0.00 in0.0 mm 0.00 in0.0 mm
12:32 AM 55.8°F13.2°C 52.3°F11.3°C 88% 0.7 mph ESE1.1 kmh ESE 1.1 mph1.8 kmh 30.01 in1016.3 mb 0.00 in0.0 mm 0.00 in0.0 mm 0.00 in0.0 mm
12:34 AM 55.9°F13.3°C 52.5°F11.4°C 88% 0.4 mph ESE0.6 kmh ESE 1.3 mph2.1 kmh 30.00 in1015.9 mb 0.00 in0.0 mm 0.00 in0.0 mm 0.00 in0.0 mm
12:37 AM 55.9°F13.3°C 52.5°F11.4°C 88% 0.4 mph SE0.6 kmh SE 1.3 mph2.1 kmh 30.00 in1015.9 mb 0.00 in0.0 mm 0.00 in0.0 mm 0.00 in0.0 mm
12:39 AM 56.1°F13.4°C 52.7°F11.5°C 88% 0.7 mph ESE1.1 kmh ESE 2.9 mph4.7 kmh 30.00 in1015.9 mb 0.00 in0.0 mm 0.00 in0.0 mm 0.00 in0.0 mm
12:41 AM 56.1°F13.4°C 52.7°F11.5°C 88% 0.7 mph E1.1 kmh E 2.2 mph3.5 kmh 30.00 in1015.9 mb 0.00 in0.0 mm 0.00 in0.0 mm 0.00 in0.0 mm
12:43 AM 56.3°F13.5°C 52.9°F11.6°C 88% 1.1 mph ESE1.8 kmh ESE 2.5 mph4.0 kmh 30.00 in1015.9 mb 0.00 in0.0 mm 0.00 in0.0 mm 0.00 in0.0 mm
12:45 AM 56.3°F13.5°C 52.9°F11.6°C 88% 1.1 mph SE1.8 kmh SE 2.0 mph3.2 kmh 30.00 in1015.9 mb 0.00 in0.0 mm 0.00 in0.0 mm 0.00 in0.0 mm
12:47 AM 56.3°F13.5°C 52.9°F11.6°C 88% 1.1 mph SE1.8 kmh SE 1.6 mph2.6 kmh 30.00 in1015.9 mb 0.00 in0.0 mm 0.00 in0.0 mm 0.00 in0.0 mm
12:50 AM 56.3°F13.5°C 52.9°F11.6°C 88% 1.1 mph ESE1.8 kmh ESE 1.8 mph2.9 kmh 30.01 in1016.3 mb 0.00 in0.0 mm 0.00 in0.0 mm 0.00 in0.0 mm
12:52 AM 56.3°F13.5°C 52.9°F11.6°C 88% 2.2 mph ESE3.5 kmh ESE 3.6 mph5.8 kmh 30.01 in1016.3 mb 0.00 in0.0 mm 0.00 in0.0 mm 0.00 in0.0 mm
12:54 AM 56.5°F13.6°C 52.9°F11.6°C 88% 2.0 mph SE3.2 kmh SE 3.1 mph5.0 kmh 30.01 in1016.3 mb 0.00 in0.0 mm 0.00 in0.0 mm 0.00 in0.0 mm
12:57 AM 56.5°F13.6°C 52.9°F11.6°C 88% 2.2 mph ESE3.5 kmh ESE 3.6 mph5.8 kmh 30.01 in1016.3 mb 0.00 in0.0 mm 0.00 in0.0 mm 0.00 in0.0 mm
12:59 AM 56.5°F13.6°C 52.9°F11.6°C 88% 2.0 mph ENE3.2 kmh ENE 3.6 mph5.8 kmh 30.01 in1016.3 mb 0.00 in0.0 mm 0.00 in0.0 mm 0.00 in0.0 mm
01:01 AM 56.5°F13.6°C 52.9°F11.6°C 88% 1.1 mph E1.8 kmh E -- 30.01 in1016.3 mb 0.00 in0.0 mm 0.00 in0.0 mm 0.00 in0.0 mm
01:03 AM 56.5°F13.6°C 52.9°F11.6°C 88% 0.7 mph ENE1.1 kmh ENE -- 30.01 in1016.3 mb 0.00 in0.0 mm 0.00 in0.0 mm 0.00 in0.0 mm
01:06 AM 56.5°F13.6°C 52.9°F11.6°C 88% 0.4 mph 0.6 kmh 0.9 mph1.4 kmh 30.01 in1016.3 mb 0.00 in0.0 mm 0.00 in0.0 mm 0.00 in0.0 mm
01:08 AM 56.5°F13.6°C 52.9°F11.6°C 88% 0.7 mph NNE1.1 kmh NNE 2.0 mph3.2 kmh 30.01 in1016.3 mb 0.00 in0.0 mm 0.00 in0.0 mm 0.00 in0.0 mm
01:10 AM 56.5°F13.6°C 52.9°F11.6°C 88% 0.9 mph NNE1.4 kmh NNE 2.7 mph4.3 kmh 30.01 in1016.3 mb 0.00 in0.0 mm 0.00 in0.0 mm 0.00 in0.0 mm
01:12 AM 56.5°F13.6°C 52.9°F11.6°C 88% 1.1 mph NNW1.8 kmh NNW 2.2 mph3.5 kmh 30.00 in1015.9 mb 0.00 in0.0 mm 0.00 in0.0 mm 0.00 in0.0 mm
01:14 AM 56.5°F13.6°C 52.9°F11.6°C 88% 1.1 mph WNW1.8 kmh WNW 2.0 mph3.2 kmh 30.00 in1015.9 mb 0.00 in0.0 mm 0.00 in0.0 mm 0.00 in0.0 mm
01:16 AM 56.5°F13.6°C 52.9°F11.6°C 88% 0.7 mph SW1.1 kmh SW 0.9 mph1.4 kmh 30.00 in1015.9 mb 0.00 in0.0 mm 0.00 in0.0 mm 0.00 in0.0 mm
01:19 AM 56.5°F13.6°C 52.9°F11.6°C 88% 0.4 mph WNW0.6 kmh WNW 1.1 mph1.8 kmh 30.00 in1015.9 mb 0.00 in0.0 mm 0.00 in0.0 mm 0.00 in0.0 mm
01:21 AM 56.5°F13.6°C 52.9°F11.6°C 88% 0.2 mph NW0.3 kmh NW -- 30.00 in1015.9 mb 0.00 in0.0 mm 0.00 in0.0 mm 0.00 in0.0 mm
01:23 AM 56.5°F13.6°C 52.7°F11.5°C 87% 0.2 mph 0.3 kmh -- 30.00 in1015.9 mb 0.00 in0.0 mm 0.00 in0.0 mm 0.00 in0.0 mm
01:25 AM 56.3°F13.5°C 52.5°F11.4°C 87% 0.2 mph NNW0.3 kmh NNW -- 30.00 in1015.9 mb 0.00 in0.0 mm 0.00 in0.0 mm 0.00 in0.0 mm
01:28 AM 56.3°F13.5°C 52.5°F11.4°C 87% 0.2 mph WSW0.3 kmh WSW -- 30.00 in1015.9 mb 0.00 in0.0 mm 0.00 in0.0 mm 0.00 in0.0 mm
01:30 AM 56.3°F13.5°C 52.5°F11.4°C 87% 0.2 mph SSW0.3 kmh SSW -- 30.00 in1015.9 mb 0.00 in0.0 mm 0.00 in0.0 mm 0.00 in0.0 mm
01:32 AM 56.1°F13.4°C 52.3°F11.3°C 87% 0.2 mph SSW0.3 kmh SSW -- 30.00 in1015.9 mb 0.00 in0.0 mm 0.00 in0.0 mm 0.00 in0.0 mm
01:34 AM 56.1°F13.4°C 52.3°F11.3°C 87% 0.2 mph SSW0.3 kmh SSW -- 30.00 in1015.9 mb 0.00 in0.0 mm 0.00 in0.0 mm 0.00 in0.0 mm
01:36 AM 56.1°F13.4°C 52.3°F11.3°C 87% 0.2 mph SE0.3 kmh SE -- 30.00 in1015.9 mb 0.00 in0.0 mm 0.00 in0.0 mm 0.00 in0.0 mm
01:38 AM 56.1°F13.4°C 52.3°F11.3°C 87% 0.2 mph SE0.3 kmh SE -- 30.00 in1015.9 mb 0.00 in0.0 mm 0.00 in0.0 mm 0.00 in0.0 mm
01:41 AM 56.1°F13.4°C 52.3°F11.3°C 87% 0.2 mph ESE0.3 kmh ESE -- 30.00 in1015.9 mb 0.00 in0.0 mm 0.00 in0.0 mm 0.00 in0.0 mm
01:43 AM 56.1°F13.4°C 52.3°F11.3°C 87% 0.2 mph ESE0.3 kmh ESE -- 30.00 in1015.9 mb 0.00 in0.0 mm 0.00 in0.0 mm 0.00 in0.0 mm
01:45 AM 56.1°F13.4°C 52.3°F11.3°C 87% 0.2 mph ESE0.3 kmh ESE -- 30.00 in1015.9 mb 0.00 in0.0 mm 0.00 in0.0 mm 0.00 in0.0 mm
01:47 AM 56.1°F13.4°C 52.3°F11.3°C 87% 0.2 mph ESE0.3 kmh ESE -- 30.00 in1015.9 mb 0.00 in0.0 mm 0.00 in0.0 mm 0.00 in0.0 mm
01:49 AM 55.9°F13.3°C 52.2°F11.2°C 87% 0.2 mph SE0.3 kmh SE -- 30.00 in1015.9 mb 0.00 in0.0 mm 0.00 in0.0 mm 0.00 in0.0 mm
01:51 AM 55.9°F13.3°C 52.2°F11.2°C 87% 0.2 mph ESE0.3 kmh ESE -- 30.00 in1015.9 mb 0.00 in0.0 mm 0.00 in0.0 mm 0.00 in0.0 mm
01:53 AM 55.9°F13.3°C 52.2°F11.2°C 87% 0.2 mph SE0.3 kmh SE 0.7 mph1.1 kmh 30.00 in1015.9 mb 0.00 in0.0 mm 0.00 in0.0 mm 0.00 in0.0 mm
01:56 AM 55.9°F13.3°C 52.2°F11.2°C 87% 0.2 mph ESE0.3 kmh ESE 0.7 mph1.1 kmh 30.00 in1015.9 mb 0.00 in0.0 mm 0.00 in0.0 mm 0.00 in0.0 mm
01:58 AM 55.9°F13.3°C 52.2°F11.2°C 87% 0.4 mph ESE0.6 kmh ESE 1.6 mph2.6 kmh 30.00 in1015.9 mb 0.00 in0.0 mm 0.00 in0.0 mm 0.00 in0.0 mm
02:06 AM 55.8°F13.2°C 52.0°F11.1°C 87% 1.1 mph ESE1.8 kmh ESE -- 30.00 in1015.9 mb 0.00 in0.0 mm 0.00 in0.0 mm 0.00 in0.0 mm
02:08 AM 55.8°F13.2°C 52.0°F11.1°C 87% Calm Calm -- 30.00 in1015.9 mb 0.00 in0.0 mm 0.00 in0.0 mm 0.00 in0.0 mm
02:10 AM 55.8°F13.2°C 52.0°F11.1°C 87% Calm Calm -- 30.00 in1015.9 mb 0.00 in0.0 mm 0.00 in0.0 mm 0.00 in0.0 mm
02:13 AM 55.9°F13.3°C 52.5°F11.4°C 88% Calm Calm -- 30.00 in1015.9 mb 0.00 in0.0 mm 0.00 in0.0 mm 0.00 in0.0 mm
02:15 AM 55.9°F13.3°C 52.5°F11.4°C 88% Calm Calm -- 30.00 in1015.9 mb 0.00 in0.0 mm 0.00 in0.0 mm 0.00 in0.0 mm
02:17 AM 55.9°F13.3°C 52.2°F11.2°C 87% Calm Calm -- 30.00 in1015.9 mb 0.00 in0.0 mm 0.00 in0.0 mm 0.00 in0.0 mm
02:19 AM 55.9°F13.3°C 52.5°F11.4°C 88% Calm Calm -- 30.00 in1015.9 mb 0.00 in0.0 mm 0.00 in0.0 mm 0.00 in0.0 mm
02:22 AM 55.9°F13.3°C 52.5°F11.4°C 88% Calm Calm -- 30.00 in1015.9 mb 0.00 in0.0 mm 0.00 in0.0 mm 0.00 in0.0 mm
02:24 AM 55.9°F13.3°C 52.5°F11.4°C 88% Calm Calm -- 30.00 in1015.9 mb 0.00 in0.0 mm 0.00 in0.0 mm 0.00 in0.0 mm
02:26 AM 55.9°F13.3°C 52.5°F11.4°C 88% Calm Calm -- 30.00 in1015.9 mb 0.00 in0.0 mm 0.00 in0.0 mm 0.00 in0.0 mm
02:28 AM 55.9°F13.3°C 52.2°F11.2°C 87% Calm Calm -- 30.00 in1015.9 mb 0.00 in0.0 mm 0.00 in0.0 mm 0.00 in0.0 mm
02:30 AM 55.9°F13.3°C 52.2°F11.2°C 87% Calm Calm -- 30.00 in1015.9 mb 0.00 in0.0 mm 0.00 in0.0 mm 0.00 in0.0 mm
02:33 AM 55.9°F13.3°C 52.5°F11.4°C 88% Calm Calm -- 30.00 in1015.9 mb 0.00 in0.0 mm 0.00 in0.0 mm 0.00 in0.0 mm
02:35 AM 55.9°F13.3°C 52.2°F11.2°C 87% Calm Calm -- 30.00 in1015.9 mb 0.00 in0.0 mm 0.00 in0.0 mm 0.00 in0.0 mm
02:37 AM 55.9°F13.3°C 52.2°F11.2°C 87% Calm Calm -- 30.00 in1015.9 mb 0.00 in0.0 mm 0.00 in0.0 mm 0.00 in0.0 mm
02:39 AM 55.8°F13.2°C 52.0°F11.1°C 87% Calm Calm -- 30.00 in1015.9 mb 0.00 in0.0 mm 0.00 in0.0 mm 0.00 in0.0 mm
02:42 AM 55.8°F13.2°C 52.0°F11.1°C 87% 0.2 mph ESE0.3 kmh ESE 0.7 mph1.1 kmh 30.00 in1015.9 mb 0.00 in0.0 mm 0.00 in0.0 mm 0.00 in0.0 mm
02:44 AM 55.8°F13.2°C 52.3°F11.3°C 88% 0.2 mph ESE0.3 kmh ESE 0.9 mph1.4 kmh 30.00 in1015.9 mb 0.00 in0.0 mm 0.00 in0.0 mm 0.00 in0.0 mm
02:46 AM 55.6°F13.1°C 52.2°F11.2°C 88% 0.2 mph ESE0.3 kmh ESE -- 30.00 in1015.9 mb 0.00 in0.0 mm 0.00 in0.0 mm 0.00 in0.0 mm
02:48 AM 55.6°F13.1°C 52.2°F11.2°C 88% 0.2 mph ESE0.3 kmh ESE 0.7 mph1.1 kmh 30.00 in1015.9 mb 0.00 in0.0 mm 0.00 in0.0 mm 0.00 in0.0 mm
02:51 AM 55.6°F13.1°C 52.2°F11.2°C 88% 0.4 mph ESE0.6 kmh ESE 1.1 mph1.8 kmh 30.00 in1015.9 mb 0.00 in0.0 mm 0.00 in0.0 mm 0.00 in0.0 mm
02:53 AM 55.4°F13.0°C 52.0°F11.1°C 88% 0.4 mph ESE0.6 kmh ESE 0.9 mph1.4 kmh 30.00 in1015.9 mb 0.00 in0.0 mm 0.00 in0.0 mm 0.00 in0.0 mm
02:55 AM 55.4°F13.0°C 52.0°F11.1°C 88% 0.4 mph ESE0.6 kmh ESE 1.8 mph2.9 kmh 30.00 in1015.9 mb 0.00 in0.0 mm 0.00 in0.0 mm 0.00 in0.0 mm
02:57 AM 55.2°F12.9°C 51.8°F11.0°C 88% 0.2 mph ENE0.3 kmh ENE -- 30.00 in1015.9 mb 0.00 in0.0 mm 0.00 in0.0 mm 0.00 in0.0 mm
02:59 AM 55.2°F12.9°C 51.8°F11.0°C 88% 0.4 mph NW0.6 kmh NW 1.3 mph2.1 kmh 30.00 in1015.9 mb 0.00 in0.0 mm 0.00 in0.0 mm 0.00 in0.0 mm
03:02 AM 55.2°F12.9°C 51.8°F11.0°C 88% 0.2 mph NNW0.3 kmh NNW 0.7 mph1.1 kmh 30.00 in1015.9 mb 0.00 in0.0 mm 0.00 in0.0 mm 0.00 in0.0 mm
03:04 AM 55.2°F12.9°C 51.8°F11.0°C 88% 0.2 mph NW0.3 kmh NW 0.9 mph1.4 kmh 30.00 in1015.9 mb 0.00 in0.0 mm 0.00 in0.0 mm 0.00 in0.0 mm
03:06 AM 55.2°F12.9°C 51.8°F11.0°C 88% 0.2 mph W0.3 kmh W -- 30.00 in1015.9 mb 0.00 in0.0 mm 0.00 in0.0 mm 0.00 in0.0 mm
03:09 AM 55.2°F12.9°C 51.8°F11.0°C 88% 0.2 mph W0.3 kmh W -- 30.00 in1015.9 mb 0.00 in0.0 mm 0.00 in0.0 mm 0.00 in0.0 mm
03:11 AM 55.2°F12.9°C 51.8°F11.0°C 88% 0.2 mph W0.3 kmh W -- 30.00 in1015.9 mb 0.00 in0.0 mm 0.00 in0.0 mm 0.00 in0.0 mm
03:13 AM 55.2°F12.9°C 51.8°F11.0°C 88% 0.2 mph WNW0.3 kmh WNW -- 30.00 in1015.9 mb 0.00 in0.0 mm 0.00 in0.0 mm 0.00 in0.0 mm
03:15 AM 55.2°F12.9°C 51.8°F11.0°C 88% 0.2 mph SE0.3 kmh SE -- 30.00 in1015.9 mb 0.00 in0.0 mm 0.00 in0.0 mm 0.00 in0.0 mm
03:17 AM 55.2°F12.9°C 51.8°F11.0°C 88% 0.2 mph ESE0.3 kmh ESE 1.6 mph2.6 kmh 30.00 in1015.9 mb 0.00 in0.0 mm 0.00 in0.0 mm 0.00 in0.0 mm
03:19 AM 55.2°F12.9°C 51.8°F11.0°C 88% 0.2 mph SE0.3 kmh SE -- 30.00 in1015.9 mb 0.00 in0.0 mm 0.00 in0.0 mm 0.00 in0.0 mm
03:22 AM 55.2°F12.9°C 51.8°F11.0°C 88% 0.2 mph WSW0.3 kmh WSW 1.1 mph1.8 kmh 30.00 in1015.9 mb 0.00 in0.0 mm 0.00 in0.0 mm 0.00 in0.0 mm
03:24 AM 55.2°F12.9°C 51.8°F11.0°C 88% 0.2 mph 0.3 kmh -- 30.00 in1015.9 mb 0.00 in0.0 mm 0.00 in0.0 mm 0.00 in0.0 mm
03:26 AM 55.2°F12.9°C 51.8°F11.0°C 88% 0.7 mph SE1.1 kmh SE 2.5 mph4.0 kmh 30.00 in1015.9 mb 0.00 in0.0 mm 0.00 in0.0 mm 0.00 in0.0 mm
03:28 AM 55.2°F12.9°C 51.8°F11.0°C 88% 0.4 mph SE0.6 kmh SE 0.7 mph1.1 kmh 30.00 in1015.9 mb 0.00 in0.0 mm 0.00 in0.0 mm 0.00 in0.0 mm
03:30 AM 55.2°F12.9°C 51.8°F11.0°C 88% 0.2 mph E0.3 kmh E -- 30.00 in1015.9 mb 0.00 in0.0 mm 0.00 in0.0 mm 0.00 in0.0 mm
03:33 AM 55.2°F12.9°C 51.8°F11.0°C 88% 0.2 mph NE0.3 kmh NE -- 30.00 in1015.9 mb 0.00 in0.0 mm 0.00 in0.0 mm 0.00 in0.0 mm
03:35 AM 55.2°F12.9°C 51.8°F11.0°C 88% 0.2 mph NNE0.3 kmh NNE -- 30.00 in1015.9 mb 0.00 in0.0 mm 0.00 in0.0 mm 0.00 in0.0 mm
03:37 AM 55.2°F12.9°C 51.8°F11.0°C 88% 0.2 mph ENE0.3 kmh ENE -- 30.00 in1015.9 mb 0.00 in0.0 mm 0.00 in0.0 mm 0.00 in0.0 mm
03:39 AM 55.2°F12.9°C 51.8°F11.0°C 88% 0.2 mph E0.3 kmh E -- 30.00 in1015.9 mb 0.00 in0.0 mm 0.00 in0.0 mm 0.00 in0.0 mm
03:41 AM 55.2°F12.9°C 51.8°F11.0°C 88% 0.7 mph E1.1 kmh E 1.8 mph2.9 kmh 30.00 in1015.9 mb 0.00 in0.0 mm 0.00 in0.0 mm 0.00 in0.0 mm
03:44 AM 55.2°F12.9°C 51.8°F11.0°C 88% 1.1 mph E1.8 kmh E 2.0 mph3.2 kmh 30.00 in1015.9 mb 0.00 in0.0 mm 0.00 in0.0 mm 0.00 in0.0 mm
03:46 AM 55.2°F12.9°C 51.8°F11.0°C 88% 0.7 mph E1.1 kmh E 1.6 mph2.6 kmh 30.00 in1015.9 mb 0.00 in0.0 mm 0.00 in0.0 mm 0.00 in0.0 mm
03:48 AM 55.0°F12.8°C 51.6°F10.9°C 88% 0.4 mph E0.6 kmh E -- 30.00 in1015.9 mb 0.00 in0.0 mm 0.00 in0.0 mm 0.00 in0.0 mm
03:50 AM 55.2°F12.9°C 51.8°F11.0°C 88% 0.2 mph ESE0.3 kmh ESE 0.9 mph1.4 kmh 30.00 in1015.9 mb 0.00 in0.0 mm 0.00 in0.0 mm 0.00 in0.0 mm
03:53 AM 55.0°F12.8°C 51.6°F10.9°C 88% 0.4 mph SE0.6 kmh SE 0.9 mph1.4 kmh 30.00 in1015.9 mb 0.00 in0.0 mm 0.00 in0.0 mm 0.00 in0.0 mm
03:55 AM 55.0°F12.8°C 51.6°F10.9°C 88% 0.2 mph SE0.3 kmh SE -- 30.00 in1015.9 mb 0.00 in0.0 mm 0.00 in0.0 mm 0.00 in0.0 mm
03:57 AM 55.2°F12.9°C 51.8°F11.0°C 88% 0.2 mph SE0.3 kmh SE -- 30.00 in1015.9 mb 0.00 in0.0 mm 0.00 in0.0 mm 0.00 in0.0 mm
03:59 AM 55.2°F12.9°C 51.8°F11.0°C 88% 0.2 mph ESE0.3 kmh ESE -- 30.00 in1015.9 mb 0.00 in0.0 mm 0.00 in0.0 mm 0.00 in0.0 mm
04:01 AM 55.2°F12.9°C 51.8°F11.0°C 88% 0.2 mph ESE0.3 kmh ESE -- 30.00 in1015.9 mb 0.00 in0.0 mm 0.00 in0.0 mm 0.00 in0.0 mm
04:03 AM 55.2°F12.9°C 51.8°F11.0°C 88% 0.2 mph ESE0.3 kmh ESE -- 30.00 in1015.9 mb 0.00 in0.0 mm 0.00 in0.0 mm 0.00 in0.0 mm
04:06 AM 55.2°F12.9°C 51.8°F11.0°C 88% 0.4 mph SE0.6 kmh SE 1.3 mph2.1 kmh 30.00 in1015.9 mb 0.00 in0.0 mm 0.00 in0.0 mm 0.00 in0.0 mm
04:08 AM 55.2°F12.9°C 51.8°F11.0°C 88% 0.4 mph ESE0.6 kmh ESE 1.1 mph1.8 kmh 30.00 in1015.9 mb 0.00 in0.0 mm 0.00 in0.0 mm 0.00 in0.0 mm
04:10 AM 55.2°F12.9°C 51.8°F11.0°C 88% 0.2 mph ESE0.3 kmh ESE -- 30.00 in1015.9 mb 0.00 in0.0 mm 0.00 in0.0 mm 0.00 in0.0 mm
04:12 AM 55.4°F13.0°C 52.0°F11.1°C 88% 0.2 mph ENE0.3 kmh ENE -- 30.00 in1015.9 mb 0.00 in0.0 mm 0.00 in0.0 mm 0.00 in0.0 mm
04:14 AM 55.4°F13.0°C 52.0°F11.1°C 88% 0.2 mph ENE0.3 kmh ENE -- 30.00 in1015.9 mb 0.00 in0.0 mm 0.00 in0.0 mm 0.00 in0.0 mm
04:16 AM 55.4°F13.0°C 52.0°F11.1°C 88% 0.2 mph ENE0.3 kmh ENE -- 30.00 in1015.9 mb 0.00 in0.0 mm 0.00 in0.0 mm 0.00 in0.0 mm
04:18 AM 55.4°F13.0°C 52.0°F11.1°C 88% 0.2 mph ENE0.3 kmh ENE -- 30.00 in1015.9 mb 0.00 in0.0 mm 0.00 in0.0 mm 0.00 in0.0 mm
04:21 AM 55.6°F13.1°C 52.2°F11.2°C 88% 0.2 mph ENE0.3 kmh ENE -- 30.00 in1015.9 mb 0.00 in0.0 mm 0.00 in0.0 mm 0.00 in0.0 mm
04:23 AM 55.6°F13.1°C 52.2°F11.2°C 88% 0.2 mph ENE0.3 kmh ENE -- 30.00 in1015.9 mb 0.00 in0.0 mm 0.00 in0.0 mm 0.00 in0.0 mm
04:25 AM 55.6°F13.1°C 52.2°F11.2°C 88% 0.2 mph W0.3 kmh W -- 30.00 in1015.9 mb 0.00 in0.0 mm 0.00 in0.0 mm 0.00 in0.0 mm
04:27 AM 55.6°F13.1°C 52.2°F11.2°C 88% 0.2 mph W0.3 kmh W 0.9 mph1.4 kmh 30.00 in1015.9 mb 0.00 in0.0 mm 0.00 in0.0 mm 0.00 in0.0 mm
04:30 AM 55.6°F13.1°C 52.2°F11.2°C 88% 0.2 mph ESE0.3 kmh ESE -- 30.00 in1015.9 mb 0.00 in0.0 mm 0.00 in0.0 mm 0.00 in0.0 mm
04:32 AM 55.6°F13.1°C 52.2°F11.2°C 88% 0.2 mph NE0.3 kmh NE -- 30.00 in1015.9 mb 0.00 in0.0 mm 0.00 in0.0 mm 0.00 in0.0 mm
04:34 AM 55.6°F13.1°C 52.2°F11.2°C 88% 0.2 mph NNE0.3 kmh NNE 0.7 mph1.1 kmh 30.00 in1015.9 mb 0.00 in0.0 mm 0.00 in0.0 mm 0.00 in0.0 mm
04:37 AM 55.8°F13.2°C 52.3°F11.3°C 88% 0.2 mph W0.3 kmh W -- 30.00 in1015.9 mb 0.00 in0.0 mm 0.00 in0.0 mm 0.00 in0.0 mm
04:39 AM 55.8°F13.2°C 52.3°F11.3°C 88% 0.4 mph NNE0.6 kmh NNE 1.6 mph2.6 kmh 30.00 in1015.9 mb 0.00 in0.0 mm 0.00 in0.0 mm 0.00 in0.0 mm
04:41 AM 55.8°F13.2°C 52.3°F11.3°C 88% 0.2 mph 0.3 kmh -- 30.00 in1015.9 mb 0.00 in0.0 mm 0.00 in0.0 mm 0.00 in0.0 mm
04:43 AM 55.8°F13.2°C 52.3°F11.3°C 88% 0.2 mph WNW0.3 kmh WNW -- 30.00 in1015.9 mb 0.00 in0.0 mm 0.00 in0.0 mm 0.00 in0.0 mm
04:45 AM 55.8°F13.2°C 52.3°F11.3°C 88% 0.2 mph WNW0.3 kmh WNW 1.3 mph2.1 kmh 30.00 in1015.9 mb 0.00 in0.0 mm 0.00 in0.0 mm 0.00 in0.0 mm
04:48 AM 55.8°F13.2°C 52.3°F11.3°C 88% 0.2 mph NNW0.3 kmh NNW 1.1 mph1.8 kmh 30.00 in1015.9 mb 0.00 in0.0 mm 0.00 in0.0 mm 0.00 in0.0 mm
04:50 AM 55.9°F13.3°C 52.5°F11.4°C 88% 0.4 mph NNW0.6 kmh NNW 1.3 mph2.1 kmh 30.01 in1016.3 mb 0.00 in0.0 mm 0.00 in0.0 mm 0.00 in0.0 mm
04:52 AM 55.9°F13.3°C 52.5°F11.4°C 88% 0.2 mph NW0.3 kmh NW -- 30.01 in1016.3 mb 0.00 in0.0 mm 0.00 in0.0 mm 0.00 in0.0 mm
04:55 AM 55.9°F13.3°C 52.5°F11.4°C 88% 0.2 mph W0.3 kmh W -- 30.01 in1016.3 mb 0.00 in0.0 mm 0.00 in0.0 mm 0.00 in0.0 mm
04:57 AM 55.9°F13.3°C 52.5°F11.4°C 88% 0.2 mph NE0.3 kmh NE 0.9 mph1.4 kmh 30.01 in1016.3 mb 0.00 in0.0 mm 0.00 in0.0 mm 0.00 in0.0 mm
04:59 AM 55.9°F13.3°C 52.5°F11.4°C 88% 0.4 mph W0.6 kmh W 2.2 mph3.5 kmh 30.01 in1016.3 mb 0.00 in0.0 mm 0.00 in0.0 mm 0.00 in0.0 mm
05:01 AM 55.9°F13.3°C 52.5°F11.4°C 88% 0.9 mph W1.4 kmh W 2.7 mph4.3 kmh 30.01 in1016.3 mb 0.00 in0.0 mm 0.00 in0.0 mm 0.00 in0.0 mm
05:03 AM 55.9°F13.3°C 52.5°F11.4°C 88% 0.7 mph W1.1 kmh W 1.3 mph2.1 kmh 30.01 in1016.3 mb 0.00 in0.0 mm 0.00 in0.0 mm 0.00 in0.0 mm
05:05 AM 55.9°F13.3°C 52.5°F11.4°C 88% 0.4 mph W0.6 kmh W -- 30.01 in1016.3 mb 0.00 in0.0 mm 0.00 in0.0 mm 0.00 in0.0 mm
05:08 AM 55.9°F13.3°C 52.5°F11.4°C 88% 0.4 mph NW0.6 kmh NW 1.3 mph2.1 kmh 30.01 in1016.3 mb 0.00 in0.0 mm 0.00 in0.0 mm 0.00 in0.0 mm
05:10 AM 55.9°F13.3°C 52.5°F11.4°C 88% 0.4 mph SSE0.6 kmh SSE 0.7 mph1.1 kmh 30.01 in1016.3 mb 0.00 in0.0 mm 0.00 in0.0 mm 0.00 in0.0 mm
05:12 AM 55.9°F13.3°C 52.5°F11.4°C 88% 0.4 mph E0.6 kmh E 1.3 mph2.1 kmh 30.01 in1016.3 mb 0.00 in0.0 mm 0.00 in0.0 mm 0.00 in0.0 mm
05:14 AM 55.9°F13.3°C 52.5°F11.4°C 88% 0.2 mph E0.3 kmh E -- 30.01 in1016.3 mb 0.00 in0.0 mm 0.00 in0.0 mm 0.00 in0.0 mm
05:16 AM 56.1°F13.4°C 52.7°F11.5°C 88% 0.2 mph E0.3 kmh E -- 30.01 in1016.3 mb 0.00 in0.0 mm 0.00 in0.0 mm 0.00 in0.0 mm
05:19 AM 55.9°F13.3°C 52.5°F11.4°C 88% 0.2 mph NNW0.3 kmh NNW 0.9 mph1.4 kmh 30.01 in1016.3 mb 0.00 in0.0 mm 0.00 in0.0 mm 0.00 in0.0 mm
05:21 AM 56.1°F13.4°C 52.7°F11.5°C 88% 0.2 mph ENE0.3 kmh ENE 1.3 mph2.1 kmh 30.02 in1016.6 mb 0.00 in0.0 mm 0.00 in0.0 mm 0.00 in0.0 mm
05:23 AM 56.1°F13.4°C 52.7°F11.5°C 88% 0.2 mph NNE0.3 kmh NNE -- 30.02 in1016.6 mb 0.00 in0.0 mm 0.00 in0.0 mm 0.00 in0.0 mm
05:25 AM 55.9°F13.3°C 52.5°F11.4°C 88% 0.2 mph W0.3 kmh W -- 30.02 in1016.6 mb 0.00 in0.0 mm 0.00 in0.0 mm 0.00 in0.0 mm
05:28 AM 56.1°F13.4°C 52.7°F11.5°C 88% 0.2 mph NNW0.3 kmh NNW -- 30.02 in1016.6 mb 0.00 in0.0 mm 0.00 in0.0 mm 0.00 in0.0 mm
05:30 AM 56.1°F13.4°C 52.7°F11.5°C 88% 0.4 mph WSW0.6 kmh WSW 1.6 mph2.6 kmh 30.02 in1016.6 mb 0.00 in0.0 mm 0.00 in0.0 mm 0.00 in0.0 mm
05:32 AM 56.1°F13.4°C 52.7°F11.5°C 88% 0.4 mph 0.6 kmh 1.3 mph2.1 kmh 30.02 in1016.6 mb 0.00 in0.0 mm 0.00 in0.0 mm 0.00 in0.0 mm
05:34 AM 56.1°F13.4°C 52.7°F11.5°C 88% 0.7 mph 1.1 kmh 1.8 mph2.9 kmh 30.02 in1016.6 mb 0.00 in0.0 mm 0.00 in0.0 mm 0.00 in0.0 mm
05:36 AM 56.1°F13.4°C 52.7°F11.5°C 88% 0.7 mph NNW1.1 kmh NNW 2.5 mph4.0 kmh 30.02 in1016.6 mb 0.00 in0.0 mm 0.00 in0.0 mm 0.00 in0.0 mm
05:39 AM 56.1°F13.4°C 52.7°F11.5°C 88% 1.1 mph WNW1.8 kmh WNW 2.5 mph4.0 kmh 30.03 in1016.9 mb 0.00 in0.0 mm 0.00 in0.0 mm 0.00 in0.0 mm
05:41 AM 56.3°F13.5°C 52.9°F11.6°C 88% 1.1 mph NW1.8 kmh NW 2.7 mph4.3 kmh 30.03 in1016.9 mb 0.00 in0.0 mm 0.00 in0.0 mm 0.00 in0.0 mm
05:43 AM 56.3°F13.5°C 52.9°F11.6°C 88% 1.3 mph NNW2.1 kmh NNW 2.2 mph3.5 kmh 30.02 in1016.6 mb 0.00 in0.0 mm 0.00 in0.0 mm 0.00 in0.0 mm
05:45 AM 56.3°F13.5°C 52.9°F11.6°C 88% 1.6 mph NW2.6 kmh NW 3.6 mph5.8 kmh 30.03 in1016.9 mb 0.00 in0.0 mm 0.00 in0.0 mm 0.00 in0.0 mm
05:48 AM 56.5°F13.6°C 52.9°F11.6°C 88% 2.0 mph NW3.2 kmh NW 3.6 mph5.8 kmh 30.03 in1016.9 mb 0.00 in0.0 mm 0.00 in0.0 mm 0.00 in0.0 mm
05:50 AM 56.3°F13.5°C 53.1°F11.7°C 89% 1.8 mph NNW2.9 kmh NNW 2.9 mph4.7 kmh 30.03 in1016.9 mb 0.00 in0.0 mm 0.00 in0.0 mm 0.00 in0.0 mm
05:52 AM 56.3°F13.5°C 53.1°F11.7°C 89% 1.3 mph NW2.1 kmh NW 1.6 mph2.6 kmh 30.03 in1016.9 mb 0.00 in0.0 mm 0.00 in0.0 mm 0.00 in0.0 mm
05:54 AM 56.3°F13.5°C 53.1°F11.7°C 89% 0.7 mph WNW1.1 kmh WNW -- 30.03 in1016.9 mb 0.00 in0.0 mm 0.00 in0.0 mm 0.00 in0.0 mm
05:56 AM 56.3°F13.5°C 53.1°F11.7°C 89% 0.4 mph 0.6 kmh 0.9 mph1.4 kmh 30.03 in1016.9 mb 0.00 in0.0 mm 0.00 in0.0 mm 0.00 in0.0 mm
05:59 AM 56.3°F13.5°C 52.9°F11.6°C 88% 0.9 mph 1.4 kmh 2.7 mph4.3 kmh 30.03 in1016.9 mb 0.00 in0.0 mm 0.00 in0.0 mm 0.00 in0.0 mm
06:01 AM 56.3°F13.5°C 53.1°F11.7°C 89% 1.1 mph NW1.8 kmh NW 2.2 mph3.5 kmh 30.03 in1016.9 mb 0.00 in0.0 mm 0.00 in0.0 mm 0.00 in0.0 mm
06:03 AM 56.1°F13.4°C 52.9°F11.6°C 89% 1.3 mph WNW2.1 kmh WNW 2.7 mph4.3 kmh 30.03 in1016.9 mb 0.00 in0.0 mm 0.00 in0.0 mm 0.00 in0.0 mm
06:05 AM 56.1°F13.4°C 52.9°F11.6°C 89% 0.9 mph W1.4 kmh W 2.0 mph3.2 kmh 30.04 in1017.3 mb 0.00 in0.0 mm 0.00 in0.0 mm 0.00 in0.0 mm
06:08 AM 56.1°F13.4°C 52.9°F11.6°C 89% 1.3 mph WNW2.1 kmh WNW 2.5 mph4.0 kmh 30.04 in1017.3 mb 0.00 in0.0 mm 0.00 in0.0 mm 0.00 in0.0 mm
06:10 AM 56.1°F13.4°C 52.9°F11.6°C 89% 1.3 mph 2.1 kmh 1.6 mph2.6 kmh 30.03 in1016.9 mb 0.00 in0.0 mm 0.00 in0.0 mm 0.00 in0.0 mm
06:12 AM 56.1°F13.4°C 52.9°F11.6°C 89% 1.1 mph WNW1.8 kmh WNW 2.5 mph4.0 kmh 30.04 in1017.3 mb 0.00 in0.0 mm 0.00 in0.0 mm 0.00 in0.0 mm
06:14 AM 56.1°F13.4°C 52.9°F11.6°C 89% 0.7 mph WNW1.1 kmh WNW 1.3 mph2.1 kmh 30.03 in1016.9 mb 0.00 in0.0 mm 0.00 in0.0 mm 0.00 in0.0 mm
06:17 AM 56.1°F13.4°C 52.9°F11.6°C 89% 1.1 mph W1.8 kmh W 2.9 mph4.7 kmh 30.04 in1017.3 mb 0.00 in0.0 mm 0.00 in0.0 mm 0.00 in0.0 mm
06:19 AM 56.1°F13.4°C 52.9°F11.6°C 89% 0.9 mph SW1.4 kmh SW 2.2 mph3.5 kmh 30.04 in1017.3 mb 0.00 in0.0 mm 0.00 in0.0 mm 0.00 in0.0 mm
06:21 AM 56.1°F13.4°C 52.9°F11.6°C 89% 1.1 mph W1.8 kmh W 2.0 mph3.2 kmh 30.04 in1017.3 mb 0.00 in0.0 mm 0.00 in0.0 mm 0.00 in0.0 mm
06:23 AM 56.1°F13.4°C 52.9°F11.6°C 89% 1.1 mph W1.8 kmh W 2.0 mph3.2 kmh 30.04 in1017.3 mb 0.00 in0.0 mm 0.00 in0.0 mm 0.00 in0.0 mm
06:25 AM 56.1°F13.4°C 52.9°F11.6°C 89% 1.3 mph WSW2.1 kmh WSW 3.1 mph5.0 kmh 30.04 in1017.3 mb 0.00 in0.0 mm 0.00 in0.0 mm 0.00 in0.0 mm
06:28 AM 56.3°F13.5°C 53.1°F11.7°C 89% 1.1 mph SW1.8 kmh SW 1.8 mph2.9 kmh 30.04 in1017.3 mb 0.00 in0.0 mm 0.00 in0.0 mm 0.00 in0.0 mm
06:30 AM 56.3°F13.5°C 53.1°F11.7°C 89% 1.6 mph W2.6 kmh W 3.4 mph5.5 kmh 30.04 in1017.3 mb 0.00 in0.0 mm 0.00 in0.0 mm 0.00 in0.0 mm
06:32 AM 56.3°F13.5°C 53.1°F11.7°C 89% 1.1 mph W1.8 kmh W 3.6 mph5.8 kmh 30.04 in1017.3 mb 0.00 in0.0 mm 0.00 in0.0 mm 0.00 in0.0 mm
06:34 AM 56.3°F13.5°C 53.1°F11.7°C 89% 0.7 mph NW1.1 kmh NW 0.9 mph1.4 kmh 30.04 in1017.3 mb 0.00 in0.0 mm 0.00 in0.0 mm 0.00 in0.0 mm
06:36 AM 56.5°F13.6°C 53.2°F11.8°C 89% 1.1 mph WNW1.8 kmh WNW 2.5 mph4.0 kmh 30.04 in1017.3 mb 0.00 in0.0 mm 0.00 in0.0 mm 0.00 in0.0 mm
06:39 AM 56.5°F13.6°C 53.2°F11.8°C 89% 1.3 mph NNE2.1 kmh NNE 2.2 mph3.5 kmh 30.04 in1017.3 mb 0.00 in0.0 mm 0.00 in0.0 mm 0.00 in0.0 mm
06:41 AM 56.5°F13.6°C 53.2°F11.8°C 89% 1.8 mph NW2.9 kmh NW 3.6 mph5.8 kmh 30.04 in1017.3 mb 0.00 in0.0 mm 0.00 in0.0 mm 0.00 in0.0 mm
06:43 AM 56.5°F13.6°C 53.2°F11.8°C 89% 1.6 mph WSW2.6 kmh WSW 2.2 mph3.5 kmh 30.04 in1017.3 mb 0.00 in0.0 mm 0.00 in0.0 mm 0.00 in0.0 mm
06:46 AM 56.5°F13.6°C 53.2°F11.8°C 89% 2.2 mph W3.5 kmh W 4.0 mph6.4 kmh 30.04 in1017.3 mb 0.00 in0.0 mm 0.00 in0.0 mm 0.00 in0.0 mm
06:48 AM 56.5°F13.6°C 53.2°F11.8°C 89% 1.3 mph 2.1 kmh 1.3 mph2.1 kmh 30.04 in1017.3 mb 0.00 in0.0 mm 0.00 in0.0 mm 0.00 in0.0 mm
06:50 AM 56.5°F13.6°C 53.2°F11.8°C 89% 1.6 mph NW2.6 kmh NW 3.6 mph5.8 kmh 30.04 in1017.3 mb 0.00 in0.0 mm 0.00 in0.0 mm 0.00 in0.0 mm
06:52 AM 56.5°F13.6°C 53.2°F11.8°C 89% 1.8 mph WNW2.9 kmh WNW 4.7 mph7.6 kmh 30.04 in1017.3 mb 0.00 in0.0 mm 0.00 in0.0 mm 0.00 in0.0 mm
06:54 AM 56.7°F13.7°C 53.4°F11.9°C 89% 1.6 mph W2.6 kmh W 3.4 mph5.5 kmh 30.04 in1017.3 mb 0.00 in0.0 mm 0.00 in0.0 mm 0.00 in0.0 mm
06:57 AM 56.8°F13.8°C 53.6°F12.0°C 89% 1.8 mph WSW2.9 kmh WSW 3.6 mph5.8 kmh 30.04 in1017.3 mb 0.00 in0.0 mm 0.00 in0.0 mm 0.00 in0.0 mm
06:59 AM 56.8°F13.8°C 53.6°F12.0°C 89% 2.2 mph NW3.5 kmh NW 3.6 mph5.8 kmh 30.04 in1017.3 mb 0.00 in0.0 mm 0.00 in0.0 mm 0.00 in0.0 mm
07:01 AM 56.7°F13.7°C 53.4°F11.9°C 89% 2.2 mph NNW3.5 kmh NNW 2.9 mph4.7 kmh 30.04 in1017.3 mb 0.00 in0.0 mm 0.00 in0.0 mm 0.00 in0.0 mm
07:03 AM 56.5°F13.6°C 53.2°F11.8°C 89% 1.1 mph NW1.8 kmh NW 1.6 mph2.6 kmh 30.04 in1017.3 mb 0.00 in0.0 mm 0.00 in0.0 mm 0.00 in0.0 mm
07:05 AM 56.8°F13.8°C 53.6°F12.0°C 89% 0.7 mph 1.1 kmh -- 30.04 in1017.3 mb 0.00 in0.0 mm 0.00 in0.0 mm 0.00 in0.0 mm
07:08 AM 56.8°F13.8°C 53.6°F12.0°C 89% 0.7 mph WNW1.1 kmh WNW 4.0 mph6.4 kmh 30.04 in1017.3 mb 0.00 in0.0 mm 0.00 in0.0 mm 0.00 in0.0 mm
07:10 AM 56.8°F13.8°C 53.6°F12.0°C 89% 0.7 mph WNW1.1 kmh WNW 2.5 mph4.0 kmh 30.04 in1017.3 mb 0.00 in0.0 mm 0.00 in0.0 mm 0.00 in0.0 mm
07:12 AM 57.0°F13.9°C 53.8°F12.1°C 89% 1.8 mph W2.9 kmh W 5.4 mph8.7 kmh 30.05 in1017.6 mb 0.00 in0.0 mm 0.00 in0.0 mm 0.00 in0.0 mm
07:14 AM 56.8°F13.8°C 53.6°F12.0°C 89% 2.2 mph W3.5 kmh W 4.3 mph6.9 kmh 30.04 in1017.3 mb 0.00 in0.0 mm 0.00 in0.0 mm 0.00 in0.0 mm
07:16 AM 56.8°F13.8°C 53.6°F12.0°C 89% 1.8 mph WNW2.9 kmh WNW 2.7 mph4.3 kmh 30.05 in1017.6 mb 0.00 in0.0 mm 0.00 in0.0 mm 0.00 in0.0 mm
07:19 AM 56.8°F13.8°C 53.6°F12.0°C 89% 2.5 mph WSW4.0 kmh WSW 4.9 mph7.9 kmh 30.05 in1017.6 mb 0.00 in0.0 mm 0.00 in0.0 mm 0.00 in0.0 mm
07:21 AM 56.8°F13.8°C 53.6°F12.0°C 89% 2.5 mph NW4.0 kmh NW 4.0 mph6.4 kmh 30.05 in1017.6 mb 0.00 in0.0 mm 0.00 in0.0 mm 0.00 in0.0 mm
07:23 AM 56.8°F13.8°C 53.6°F12.0°C 89% 2.9 mph SW4.7 kmh SW 4.5 mph7.2 kmh 30.05 in1017.6 mb 0.00 in0.0 mm 0.00 in0.0 mm 0.00 in0.0 mm
07:25 AM 57.0°F13.9°C 53.8°F12.1°C 89% 2.2 mph WNW3.5 kmh WNW 2.5 mph4.0 kmh 30.05 in1017.6 mb 0.00 in0.0 mm 0.00 in0.0 mm 0.00 in0.0 mm
07:27 AM 57.0°F13.9°C 53.8°F12.1°C 89% 2.7 mph NW4.3 kmh NW 4.5 mph7.2 kmh 30.05 in1017.6 mb 0.00 in0.0 mm 0.00 in0.0 mm 0.00 in0.0 mm
07:30 AM 57.0°F13.9°C 54.1°F12.3°C 90% 2.2 mph NW3.5 kmh NW 2.9 mph4.7 kmh 30.05 in1017.6 mb 0.00 in0.0 mm 0.00 in0.0 mm 0.00 in0.0 mm
07:32 AM 57.0°F13.9°C 54.1°F12.3°C 90% 1.6 mph WNW2.6 kmh WNW 2.7 mph4.3 kmh 30.05 in1017.6 mb 0.00 in0.0 mm 0.00 in0.0 mm 0.00 in0.0 mm
07:34 AM 57.4°F14.1°C 54.5°F12.5°C 90% 2.0 mph W3.2 kmh W 5.1 mph8.2 kmh 30.05 in1017.6 mb 0.00 in0.0 mm 0.00 in0.0 mm 0.00 in0.0 mm
07:36 AM 57.4°F14.1°C 54.5°F12.5°C 90% 2.2 mph WNW3.5 kmh WNW 4.7 mph7.6 kmh 30.05 in1017.6 mb 0.00 in0.0 mm 0.00 in0.0 mm 0.00 in0.0 mm
07:38 AM 57.7°F14.3°C 54.9°F12.7°C 90% 2.0 mph WSW3.2 kmh WSW 2.7 mph4.3 kmh 30.04 in1017.3 mb 0.00 in0.0 mm 0.00 in0.0 mm 0.00 in0.0 mm
07:40 AM 57.9°F14.4°C 55.0°F12.8°C 90% 1.3 mph WNW2.1 kmh WNW 1.6 mph2.6 kmh 30.05 in1017.6 mb 0.00 in0.0 mm 0.00 in0.0 mm 0.00 in0.0 mm
07:43 AM 58.3°F14.6°C 55.4°F13.0°C 90% 1.1 mph WNW1.8 kmh WNW 2.2 mph3.5 kmh 30.04 in1017.3 mb 0.00 in0.0 mm 0.00 in0.0 mm 0.00 in0.0 mm
07:45 AM 58.6°F14.8°C 55.8°F13.2°C 90% 2.0 mph SSW3.2 kmh SSW 4.5 mph7.2 kmh 30.05 in1017.6 mb 0.00 in0.0 mm 0.00 in0.0 mm 0.00 in0.0 mm
07:47 AM 58.6°F14.8°C 55.4°F13.0°C 89% 2.7 mph NW4.3 kmh NW 3.8 mph6.1 kmh 30.05 in1017.6 mb 0.00 in0.0 mm 0.00 in0.0 mm 0.00 in0.0 mm
07:49 AM 58.6°F14.8°C 55.4°F13.0°C 89% 2.2 mph WSW3.5 kmh WSW 3.6 mph5.8 kmh 30.05 in1017.6 mb 0.00 in0.0 mm 0.00 in0.0 mm 0.00 in0.0 mm
07:51 AM 58.8°F14.9°C 55.6°F13.1°C 89% 2.7 mph WNW4.3 kmh WNW 4.3 mph6.9 kmh 30.05 in1017.6 mb 0.00 in0.0 mm 0.00 in0.0 mm 0.00 in0.0 mm
07:54 AM 58.6°F14.8°C 55.4°F13.0°C 89% 2.9 mph WNW4.7 kmh WNW 4.3 mph6.9 kmh 30.05 in1017.6 mb 0.00 in0.0 mm 0.00 in0.0 mm 0.00 in0.0 mm
07:56 AM 58.8°F14.9°C 55.6°F13.1°C 89% 2.9 mph W4.7 kmh W 4.7 mph7.6 kmh 30.05 in1017.6 mb 0.00 in0.0 mm 0.00 in0.0 mm 0.00 in0.0 mm
07:58 AM 58.6°F14.8°C 55.0°F12.8°C 88% 2.7 mph W4.3 kmh W 3.6 mph5.8 kmh 30.05 in1017.6 mb 0.00 in0.0 mm 0.00 in0.0 mm 0.00 in0.0 mm
08:00 AM 58.8°F14.9°C 55.2°F12.9°C 88% 2.7 mph W4.3 kmh W 3.4 mph5.5 kmh 30.05 in1017.6 mb 0.00 in0.0 mm 0.00 in0.0 mm 0.00 in0.0 mm
08:03 AM 58.6°F14.8°C 55.0°F12.8°C 88% 2.0 mph ENE3.2 kmh ENE 3.8 mph6.1 kmh 30.05 in1017.6 mb 0.00 in0.0 mm 0.00 in0.0 mm 0.00 in0.0 mm
08:05 AM 58.6°F14.8°C 55.0°F12.8°C 88% 1.3 mph W2.1 kmh W 2.0 mph3.2 kmh 30.05 in1017.6 mb 0.00 in0.0 mm 0.00 in0.0 mm 0.00 in0.0 mm
08:07 AM 58.6°F14.8°C 54.9°F12.7°C 87% 1.8 mph WSW2.9 kmh WSW 4.9 mph7.9 kmh 30.05 in1017.6 mb 0.00 in0.0 mm 0.00 in0.0 mm 0.00 in0.0 mm
08:09 AM 58.6°F14.8°C 54.9°F12.7°C 87% 2.2 mph NW3.5 kmh NW 3.8 mph6.1 kmh 30.05 in1017.6 mb 0.00 in0.0 mm 0.00 in0.0 mm 0.00 in0.0 mm
08:11 AM 58.5°F14.7°C 54.7°F12.6°C 87% 2.2 mph WNW3.5 kmh WNW 3.6 mph5.8 kmh 30.05 in1017.6 mb 0.00 in0.0 mm 0.00 in0.0 mm 0.00 in0.0 mm
08:14 AM 58.3°F14.6°C 54.5°F12.5°C 87% 1.8 mph WSW2.9 kmh WSW 2.5 mph4.0 kmh 30.05 in1017.6 mb 0.00 in0.0 mm 0.00 in0.0 mm 0.00 in0.0 mm
08:16 AM 58.3°F14.6°C 54.5°F12.5°C 87% 1.6 mph SW2.6 kmh SW 2.5 mph4.0 kmh 30.05 in1017.6 mb 0.00 in0.0 mm 0.00 in0.0 mm 0.00 in0.0 mm
08:18 AM 58.1°F14.5°C 54.0°F12.2°C 86% 1.6 mph 2.6 kmh 2.9 mph4.7 kmh 30.06 in1017.9 mb 0.00 in0.0 mm 0.00 in0.0 mm 0.00 in0.0 mm
08:20 AM 58.3°F14.6°C 54.1°F12.3°C 86% 1.3 mph WNW2.1 kmh WNW 3.1 mph5.0 kmh 30.06 in1017.9 mb 0.00 in0.0 mm 0.00 in0.0 mm 0.00 in0.0 mm
08:23 AM 58.1°F14.5°C 54.0°F12.2°C 86% 2.0 mph W3.2 kmh W 4.5 mph7.2 kmh 30.06 in1017.9 mb 0.00 in0.0 mm 0.00 in0.0 mm 0.00 in0.0 mm
08:25 AM 58.1°F14.5°C 54.0°F12.2°C 86% 2.0 mph W3.2 kmh W 2.9 mph4.7 kmh 30.06 in1017.9 mb 0.00 in0.0 mm 0.00 in0.0 mm 0.00 in0.0 mm
08:27 AM 58.1°F14.5°C 54.0°F12.2°C 86% 1.6 mph W2.6 kmh W 2.7 mph4.3 kmh 30.06 in1017.9 mb 0.00 in0.0 mm 0.00 in0.0 mm 0.00 in0.0 mm
08:29 AM 58.1°F14.5°C 54.0°F12.2°C 86% 1.8 mph WNW2.9 kmh WNW 4.0 mph6.4 kmh 30.06 in1017.9 mb 0.00 in0.0 mm 0.00 in0.0 mm 0.00 in0.0 mm
08:31 AM 57.9°F14.4°C 53.8°F12.1°C 86% 1.3 mph WSW2.1 kmh WSW 3.1 mph5.0 kmh 30.06 in1017.9 mb 0.00 in0.0 mm 0.00 in0.0 mm 0.00 in0.0 mm
08:33 AM 57.9°F14.4°C 54.1°F12.3°C 87% 1.6 mph WSW2.6 kmh WSW 2.2 mph3.5 kmh 30.06 in1017.9 mb 0.00 in0.0 mm 0.00 in0.0 mm 0.00 in0.0 mm
08:35 AM 57.9°F14.4°C 54.1°F12.3°C 87% 1.3 mph SW2.1 kmh SW 2.5 mph4.0 kmh 30.06 in1017.9 mb 0.00 in0.0 mm 0.00 in0.0 mm 0.00 in0.0 mm
08:37 AM 57.9°F14.4°C 54.1°F12.3°C 87% 1.1 mph W1.8 kmh W 3.1 mph5.0 kmh 30.06 in1017.9 mb 0.00 in0.0 mm 0.00 in0.0 mm 0.00 in0.0 mm
08:39 AM 57.9°F14.4°C 54.1°F12.3°C 87% 1.1 mph 1.8 kmh 2.7 mph4.3 kmh 30.06 in1017.9 mb 0.00 in0.0 mm 0.00 in0.0 mm 0.00 in0.0 mm
08:42 AM 57.7°F14.3°C 54.0°F12.2°C 87% 1.1 mph 1.8 kmh 2.7 mph4.3 kmh 30.06 in1017.9 mb 0.00 in0.0 mm 0.00 in0.0 mm 0.00 in0.0 mm
08:44 AM 57.7°F14.3°C 54.0°F12.2°C 87% 0.4 mph NNE0.6 kmh NNE -- 30.06 in1017.9 mb 0.00 in0.0 mm 0.00 in0.0 mm 0.00 in0.0 mm
08:46 AM 57.9°F14.4°C 54.1°F12.3°C 87% 0.4 mph E0.6 kmh E 0.9 mph1.4 kmh 30.06 in1017.9 mb 0.00 in0.0 mm 0.00 in0.0 mm 0.00 in0.0 mm
08:49 AM 57.9°F14.4°C 54.1°F12.3°C 87% 1.1 mph WSW1.8 kmh WSW 2.2 mph3.5 kmh 30.06 in1017.9 mb 0.00 in0.0 mm 0.00 in0.0 mm 0.00 in0.0 mm
08:51 AM 57.9°F14.4°C 54.3°F12.4°C 88% 1.8 mph NW2.9 kmh NW 4.3 mph6.9 kmh 30.06 in1017.9 mb 0.00 in0.0 mm 0.00 in0.0 mm 0.00 in0.0 mm
08:53 AM 57.7°F14.3°C 54.1°F12.3°C 88% 2.5 mph WNW4.0 kmh WNW 4.5 mph7.2 kmh 30.06 in1017.9 mb 0.00 in0.0 mm 0.00 in0.0 mm 0.00 in0.0 mm
08:55 AM 57.7°F14.3°C 54.1°F12.3°C 88% 2.2 mph WNW3.5 kmh WNW 3.6 mph5.8 kmh 30.06 in1017.9 mb 0.00 in0.0 mm 0.00 in0.0 mm 0.00 in0.0 mm
08:57 AM 57.9°F14.4°C 54.3°F12.4°C 88% 1.8 mph NNW2.9 kmh NNW 2.7 mph4.3 kmh 30.06 in1017.9 mb 0.00 in0.0 mm 0.00 in0.0 mm 0.00 in0.0 mm
09:00 AM 58.1°F14.5°C 54.5°F12.5°C 88% 2.5 mph WNW4.0 kmh WNW 3.8 mph6.1 kmh 30.06 in1017.9 mb 0.00 in0.0 mm 0.00 in0.0 mm 0.00 in0.0 mm
09:02 AM 58.1°F14.5°C 54.5°F12.5°C 88% 2.0 mph NNW3.2 kmh NNW 3.4 mph5.5 kmh 30.06 in1017.9 mb 0.00 in0.0 mm 0.00 in0.0 mm 0.00 in0.0 mm
09:04 AM 58.3°F14.6°C 54.7°F12.6°C 88% 1.3 mph W2.1 kmh W 1.3 mph2.1 kmh 30.06 in1017.9 mb 0.00 in0.0 mm 0.00 in0.0 mm 0.00 in0.0 mm
09:06 AM 58.5°F14.7°C 55.2°F12.9°C 89% 0.9 mph WNW1.4 kmh WNW 2.0 mph3.2 kmh 30.06 in1017.9 mb 0.00 in0.0 mm 0.00 in0.0 mm 0.00 in0.0 mm
09:08 AM 58.8°F14.9°C 55.6°F13.1°C 89% 0.9 mph NE1.4 kmh NE 2.0 mph3.2 kmh 30.06 in1017.9 mb 0.00 in0.0 mm 0.00 in0.0 mm 0.00 in0.0 mm
09:10 AM 59.2°F15.1°C 55.6°F13.1°C 88% 0.7 mph NW1.1 kmh NW 2.0 mph3.2 kmh 30.06 in1017.9 mb 0.00 in0.0 mm 0.00 in0.0 mm 0.00 in0.0 mm
09:13 AM 59.2°F15.1°C 55.6°F13.1°C 88% 1.1 mph SW1.8 kmh SW 2.9 mph4.7 kmh 30.06 in1017.9 mb 0.00 in0.0 mm 0.00 in0.0 mm 0.00 in0.0 mm
09:15 AM 58.8°F14.9°C 55.2°F12.9°C 88% 1.3 mph WNW2.1 kmh WNW 2.9 mph4.7 kmh 30.06 in1017.9 mb 0.00 in0.0 mm 0.00 in0.0 mm 0.00 in0.0 mm
09:17 AM 59.2°F15.1°C 55.6°F13.1°C 88% 0.9 mph SW1.4 kmh SW 1.1 mph1.8 kmh 30.06 in1017.9 mb 0.00 in0.0 mm 0.00 in0.0 mm 0.00 in0.0 mm
09:19 AM 59.4°F15.2°C 55.8°F13.2°C 88% 0.4 mph ENE0.6 kmh ENE -- 30.06 in1017.9 mb 0.00 in0.0 mm 0.00 in0.0 mm 0.00 in0.0 mm
09:21 AM 59.7°F15.4°C 56.5°F13.6°C 89% 0.2 mph E0.3 kmh E -- 30.06 in1017.9 mb 0.00 in0.0 mm 0.00 in0.0 mm 0.00 in0.0 mm
09:24 AM 60.1°F15.6°C 56.8°F13.8°C 89% 0.7 mph NW1.1 kmh NW 2.0 mph3.2 kmh 30.06 in1017.9 mb 0.00 in0.0 mm 0.00 in0.0 mm 0.00 in0.0 mm
09:26 AM 60.1°F15.6°C 56.5°F13.6°C 88% 1.1 mph NNW1.8 kmh NNW 2.9 mph4.7 kmh 30.06 in1017.9 mb 0.00 in0.0 mm 0.00 in0.0 mm 0.00 in0.0 mm
09:28 AM 60.1°F15.6°C 56.5°F13.6°C 88% 2.0 mph NW3.2 kmh NW 4.7 mph7.6 kmh 30.06 in1017.9 mb 0.00 in0.0 mm 0.00 in0.0 mm 0.00 in0.0 mm
09:30 AM 60.1°F15.6°C 56.5°F13.6°C 88% 1.6 mph 2.6 kmh 2.5 mph4.0 kmh 30.06 in1017.9 mb 0.00 in0.0 mm 0.00 in0.0 mm 0.00 in0.0 mm
09:32 AM 60.4°F15.8°C 56.8°F13.8°C 88% 1.1 mph E1.8 kmh E 4.0 mph6.4 kmh 30.06 in1017.9 mb 0.00 in0.0 mm 0.00 in0.0 mm 0.00 in0.0 mm
09:35 AM 61.0°F16.1°C 57.4°F14.1°C 88% 0.9 mph E1.4 kmh E 1.6 mph2.6 kmh 30.06 in1017.9 mb 0.00 in0.0 mm 0.00 in0.0 mm 0.00 in0.0 mm
09:37 AM 61.5°F16.4°C 57.9°F14.4°C 88% 0.7 mph WSW1.1 kmh WSW 0.7 mph1.1 kmh 30.06 in1017.9 mb 0.00 in0.0 mm 0.00 in0.0 mm 0.00 in0.0 mm
09:39 AM 61.7°F16.5°C 58.1°F14.5°C 88% 0.4 mph W0.6 kmh W 1.8 mph2.9 kmh 30.06 in1017.9 mb 0.00 in0.0 mm 0.00 in0.0 mm 0.00 in0.0 mm
09:41 AM 61.7°F16.5°C 57.7°F14.3°C 87% 1.1 mph WSW1.8 kmh WSW 5.1 mph8.2 kmh 30.06 in1017.9 mb 0.00 in0.0 mm 0.00 in0.0 mm 0.00 in0.0 mm
09:43 AM 61.5°F16.4°C 57.4°F14.1°C 86% 2.5 mph 4.0 kmh 7.2 mph11.6 kmh 30.06 in1017.9 mb 0.00 in0.0 mm 0.00 in0.0 mm 0.00 in0.0 mm
09:46 AM 61.5°F16.4°C 57.0°F13.9°C 85% 1.8 mph WNW2.9 kmh WNW 3.1 mph5.0 kmh 30.06 in1017.9 mb 0.00 in0.0 mm 0.00 in0.0 mm 0.00 in0.0 mm
09:48 AM 61.3°F16.3°C 56.8°F13.8°C 85% 1.8 mph 2.9 kmh 3.8 mph6.1 kmh 30.06 in1017.9 mb 0.00 in0.0 mm 0.00 in0.0 mm 0.00 in0.0 mm
09:50 AM 61.5°F16.4°C 57.0°F13.9°C 85% 1.3 mph WNW2.1 kmh WNW 3.6 mph5.8 kmh 30.07 in1018.3 mb 0.00 in0.0 mm 0.00 in0.0 mm 0.00 in0.0 mm
09:52 AM 61.5°F16.4°C 56.7°F13.7°C 84% 1.6 mph NNE2.6 kmh NNE 3.4 mph5.5 kmh 30.07 in1018.3 mb 0.00 in0.0 mm 0.00 in0.0 mm 0.00 in0.0 mm
09:54 AM 61.9°F16.6°C 57.0°F13.9°C 84% 1.6 mph NNW2.6 kmh NNW 4.0 mph6.4 kmh 30.06 in1017.9 mb 0.00 in0.0 mm 0.00 in0.0 mm 0.00 in0.0 mm
09:57 AM 61.9°F16.6°C 56.7°F13.7°C 83% 1.8 mph W2.9 kmh W 5.1 mph8.2 kmh 30.06 in1017.9 mb 0.00 in0.0 mm 0.00 in0.0 mm 0.00 in0.0 mm
09:59 AM 62.1°F16.7°C 56.8°F13.8°C 83% 1.3 mph WSW2.1 kmh WSW 2.5 mph4.0 kmh 30.06 in1017.9 mb 0.00 in0.0 mm 0.00 in0.0 mm 0.00 in0.0 mm
10:01 AM 62.2°F16.8°C 57.0°F13.9°C 83% 1.8 mph NW2.9 kmh NW 4.0 mph6.4 kmh 30.06 in1017.9 mb 0.00 in0.0 mm 0.00 in0.0 mm 0.00 in0.0 mm
10:03 AM 62.2°F16.8°C 56.7°F13.7°C 82% 2.5 mph NNW4.0 kmh NNW 4.7 mph7.6 kmh 30.06 in1017.9 mb 0.00 in0.0 mm 0.00 in0.0 mm 0.00 in0.0 mm
10:05 AM 62.2°F16.8°C 56.7°F13.7°C 82% 2.0 mph NNE3.2 kmh NNE 3.1 mph5.0 kmh 30.06 in1017.9 mb 0.00 in0.0 mm 0.00 in0.0 mm 0.00 in0.0 mm
10:08 AM 62.4°F16.9°C 56.8°F13.8°C 82% 1.3 mph 2.1 kmh 1.3 mph2.1 kmh 30.07 in1018.3 mb 0.00 in0.0 mm 0.00 in0.0 mm 0.00 in0.0 mm
10:10 AM 62.4°F16.9°C 56.5°F13.6°C 81% 2.2 mph NNE3.5 kmh NNE 6.7 mph10.8 kmh 30.07 in1018.3 mb 0.00 in0.0 mm 0.00 in0.0 mm 0.00 in0.0 mm
10:12 AM 62.6°F17.0°C 56.7°F13.7°C 81% 2.2 mph 3.5 kmh 4.7 mph7.6 kmh 30.06 in1017.9 mb 0.00 in0.0 mm 0.00 in0.0 mm 0.00 in0.0 mm
10:14 AM 63.0°F17.2°C 56.7°F13.7°C 80% 2.7 mph NW4.3 kmh NW 5.6 mph9.0 kmh 30.06 in1017.9 mb 0.00 in0.0 mm 0.00 in0.0 mm 0.00 in0.0 mm
10:17 AM 63.3°F17.4°C 57.0°F13.9°C 80% 1.8 mph NE2.9 kmh NE 2.5 mph4.0 kmh 30.06 in1017.9 mb 0.00 in0.0 mm 0.00 in0.0 mm 0.00 in0.0 mm
10:19 AM 63.5°F17.5°C 57.2°F14.0°C 80% 1.8 mph WSW2.9 kmh WSW 2.9 mph4.7 kmh 30.06 in1017.9 mb 0.00 in0.0 mm 0.00 in0.0 mm 0.00 in0.0 mm
10:21 AM 63.7°F17.6°C 57.0°F13.9°C 79% 1.6 mph NW2.6 kmh NW 3.6 mph5.8 kmh 30.06 in1017.9 mb 0.00 in0.0 mm 0.00 in0.0 mm 0.00 in0.0 mm
10:23 AM 64.0°F17.8°C 57.0°F13.9°C 78% 2.2 mph WSW3.5 kmh WSW 5.4 mph8.7 kmh 30.06 in1017.9 mb 0.00 in0.0 mm 0.00 in0.0 mm 0.00 in0.0 mm
10:26 AM 64.0°F17.8°C 56.7°F13.7°C 77% 2.2 mph W3.5 kmh W 3.8 mph6.1 kmh 30.06 in1017.9 mb 0.00 in0.0 mm 0.00 in0.0 mm 0.00 in0.0 mm
10:28 AM 64.0°F17.8°C 56.7°F13.7°C 77% 2.7 mph NNW4.3 kmh NNW 5.1 mph8.2 kmh 30.07 in1018.3 mb 0.00 in0.0 mm 0.00 in0.0 mm 0.00 in0.0 mm
10:30 AM 64.0°F17.8°C 56.3°F13.5°C 76% 2.9 mph NNW4.7 kmh NNW 7.4 mph11.9 kmh 30.07 in1018.3 mb 0.00 in0.0 mm 0.00 in0.0 mm 0.00 in0.0 mm
10:32 AM 64.2°F17.9°C 56.8°F13.8°C 77% 2.5 mph NNW4.0 kmh NNW 6.5 mph10.5 kmh 30.07 in1018.3 mb 0.00 in0.0 mm 0.00 in0.0 mm 0.00 in0.0 mm
10:34 AM 64.2°F17.9°C 56.5°F13.6°C 76% 2.9 mph 4.7 kmh 5.4 mph8.7 kmh 30.06 in1017.9 mb 0.00 in0.0 mm 0.00 in0.0 mm 0.00 in0.0 mm
10:37 AM 64.2°F17.9°C 56.5°F13.6°C 76% 2.5 mph WNW4.0 kmh WNW 4.7 mph7.6 kmh 30.06 in1017.9 mb 0.00 in0.0 mm 0.00 in0.0 mm 0.00 in0.0 mm
10:39 AM 64.4°F18.0°C 56.7°F13.7°C 76% 2.2 mph 3.5 kmh 5.6 mph9.0 kmh 30.07 in1018.3 mb 0.00 in0.0 mm 0.00 in0.0 mm 0.00 in0.0 mm
10:41 AM 64.4°F18.0°C 56.3°F13.5°C 75% 2.7 mph 4.3 kmh 5.1 mph8.2 kmh 30.06 in1017.9 mb 0.00 in0.0 mm 0.00 in0.0 mm 0.00 in0.0 mm
10:43 AM 64.2°F17.9°C 56.1°F13.4°C 75% 2.0 mph W3.2 kmh W 3.8 mph6.1 kmh 30.07 in1018.3 mb 0.00 in0.0 mm 0.00 in0.0 mm 0.00 in0.0 mm
10:46 AM 64.2°F17.9°C 56.5°F13.6°C 76% 2.7 mph WNW4.3 kmh WNW 6.7 mph10.8 kmh 30.07 in1018.3 mb 0.00 in0.0 mm 0.00 in0.0 mm 0.00 in0.0 mm
10:48 AM 64.0°F17.8°C 55.9°F13.3°C 75% 2.5 mph NNE4.0 kmh NNE 3.8 mph6.1 kmh 30.07 in1018.3 mb 0.00 in0.0 mm 0.00 in0.0 mm 0.00 in0.0 mm
10:50 AM 63.7°F17.6°C 55.6°F13.1°C 75% 1.8 mph 2.9 kmh 2.5 mph4.0 kmh 30.07 in1018.3 mb 0.00 in0.0 mm 0.00 in0.0 mm 0.00 in0.0 mm
10:52 AM 63.5°F17.5°C 55.4°F13.0°C 75% 1.8 mph WNW2.9 kmh WNW 2.5 mph4.0 kmh 30.07 in1018.3 mb 0.00 in0.0 mm 0.00 in0.0 mm 0.00 in0.0 mm
10:54 AM 63.3°F17.4°C 55.6°F13.1°C 76% 1.6 mph NNW2.6 kmh NNW 2.5 mph4.0 kmh 30.07 in1018.3 mb 0.00 in0.0 mm 0.00 in0.0 mm 0.00 in0.0 mm
10:57 AM 63.1°F17.3°C 55.4°F13.0°C 76% 1.6 mph W2.6 kmh W 3.1 mph5.0 kmh 30.07 in1018.3 mb 0.00 in0.0 mm 0.00 in0.0 mm 0.00 in0.0 mm
10:59 AM 63.1°F17.3°C 55.8°F13.2°C 77% 1.3 mph W2.1 kmh W 2.7 mph4.3 kmh 30.07 in1018.3 mb 0.00 in0.0 mm 0.00 in0.0 mm 0.00 in0.0 mm
11:01 AM 63.1°F17.3°C 55.8°F13.2°C 77% 1.3 mph NW2.1 kmh NW 2.5 mph4.0 kmh 30.08 in1018.6 mb 0.00 in0.0 mm 0.00 in0.0 mm 0.00 in0.0 mm
11:03 AM 63.0°F17.2°C 55.9°F13.3°C 78% 1.6 mph SW2.6 kmh SW 3.6 mph5.8 kmh 30.07 in1018.3 mb 0.00 in0.0 mm 0.00 in0.0 mm 0.00 in0.0 mm
11:06 AM 63.0°F17.2°C 55.9°F13.3°C 78% 2.0 mph W3.2 kmh W 3.8 mph6.1 kmh 30.08 in1018.6 mb 0.00 in0.0 mm 0.00 in0.0 mm 0.00 in0.0 mm
11:08 AM 63.1°F17.3°C 56.1°F13.4°C 78% 1.8 mph NW2.9 kmh NW 3.1 mph5.0 kmh 30.07 in1018.3 mb 0.00 in0.0 mm 0.00 in0.0 mm 0.00 in0.0 mm
11:10 AM 63.3°F17.4°C 56.7°F13.7°C 79% 2.0 mph 3.2 kmh 4.3 mph6.9 kmh 30.08 in1018.6 mb 0.00 in0.0 mm 0.00 in0.0 mm 0.00 in0.0 mm
11:12 AM 63.5°F17.5°C 56.8°F13.8°C 79% 1.6 mph SSW2.6 kmh SSW 2.2 mph3.5 kmh 30.07 in1018.3 mb 0.00 in0.0 mm 0.00 in0.0 mm 0.00 in0.0 mm
11:15 AM 63.7°F17.6°C 57.0°F13.9°C 79% 0.9 mph WNW1.4 kmh WNW 0.9 mph1.4 kmh 30.07 in1018.3 mb 0.00 in0.0 mm 0.00 in0.0 mm 0.00 in0.0 mm
11:17 AM 64.0°F17.8°C 57.4°F14.1°C 79% 1.3 mph 2.1 kmh 2.7 mph4.3 kmh 30.07 in1018.3 mb 0.00 in0.0 mm 0.00 in0.0 mm 0.00 in0.0 mm
11:19 AM 64.0°F17.8°C 57.4°F14.1°C 79% 0.9 mph 1.4 kmh 0.9 mph1.4 kmh 30.08 in1018.6 mb 0.00 in0.0 mm 0.00 in0.0 mm 0.00 in0.0 mm
11:21 AM 64.2°F17.9°C 57.2°F14.0°C 78% 0.9 mph ENE1.4 kmh ENE 2.7 mph4.3 kmh 30.07 in1018.3 mb 0.00 in0.0 mm 0.00 in0.0 mm 0.00 in0.0 mm
11:24 AM 64.6°F18.1°C 57.9°F14.4°C 79% 1.1 mph ESE1.8 kmh ESE 2.0 mph3.2 kmh 30.07 in1018.3 mb 0.00 in0.0 mm 0.00 in0.0 mm 0.00 in0.0 mm
11:28 AM 64.8°F18.2°C 57.7°F14.3°C 78% 1.6 mph W2.6 kmh W 3.1 mph5.0 kmh 30.07 in1018.3 mb 0.00 in0.0 mm 0.00 in0.0 mm 0.00 in0.0 mm
11:30 AM 64.9°F18.3°C 57.6°F14.2°C 77% 0.9 mph 1.4 kmh 1.1 mph1.8 kmh 30.07 in1018.3 mb 0.00 in0.0 mm 0.00 in0.0 mm 0.00 in0.0 mm
11:32 AM 64.8°F18.2°C 57.0°F13.9°C 76% 2.0 mph NW3.2 kmh NW 7.8 mph12.6 kmh 30.08 in1018.6 mb 0.00 in0.0 mm 0.00 in0.0 mm 0.00 in0.0 mm
11:34 AM 64.8°F18.2°C 57.0°F13.9°C 76% 1.6 mph SW2.6 kmh SW 2.5 mph4.0 kmh 30.08 in1018.6 mb 0.00 in0.0 mm 0.00 in0.0 mm 0.00 in0.0 mm
11:36 AM 64.6°F18.1°C 56.8°F13.8°C 76% 2.9 mph NNW4.7 kmh NNW 8.1 mph13.0 kmh 30.08 in1018.6 mb 0.00 in0.0 mm 0.00 in0.0 mm 0.00 in0.0 mm
11:38 AM 64.2°F17.9°C 55.8°F13.2°C 74% 4.0 mph 6.4 kmh 7.6 mph12.2 kmh 30.08 in1018.6 mb 0.00 in0.0 mm 0.00 in0.0 mm 0.00 in0.0 mm
11:41 AM 64.0°F17.8°C 55.6°F13.1°C 74% 3.1 mph 5.0 kmh 3.1 mph5.0 kmh 30.08 in1018.6 mb 0.00 in0.0 mm 0.00 in0.0 mm 0.00 in0.0 mm
11:43 AM 64.0°F17.8°C 55.9°F13.3°C 75% 2.0 mph 3.2 kmh 2.0 mph3.2 kmh 30.08 in1018.6 mb 0.00 in0.0 mm 0.00 in0.0 mm 0.00 in0.0 mm
11:45 AM 64.2°F17.9°C 56.1°F13.4°C 75% 2.7 mph NNW4.3 kmh NNW 7.4 mph11.9 kmh 30.08 in1018.6 mb 0.00 in0.0 mm 0.00 in0.0 mm 0.00 in0.0 mm
11:47 AM 64.2°F17.9°C 56.1°F13.4°C 75% 2.9 mph E4.7 kmh E 5.6 mph9.0 kmh 30.08 in1018.6 mb 0.00 in0.0 mm 0.00 in0.0 mm 0.00 in0.0 mm
11:49 AM 64.0°F17.8°C 55.9°F13.3°C 75% 2.5 mph WNW4.0 kmh WNW 5.8 mph9.3 kmh 30.08 in1018.6 mb 0.00 in0.0 mm 0.00 in0.0 mm 0.00 in0.0 mm
11:52 AM 64.2°F17.9°C 56.5°F13.6°C 76% 2.5 mph NNE4.0 kmh NNE 4.7 mph7.6 kmh 30.07 in1018.3 mb 0.00 in0.0 mm 0.00 in0.0 mm 0.00 in0.0 mm
11:54 AM 64.2°F17.9°C 56.5°F13.6°C 76% 2.5 mph 4.0 kmh 2.9 mph4.7 kmh 30.08 in1018.6 mb 0.00 in0.0 mm 0.00 in0.0 mm 0.00 in0.0 mm
11:56 AM 64.2°F17.9°C 56.5°F13.6°C 76% 2.5 mph W4.0 kmh W 3.8 mph6.1 kmh 30.08 in1018.6 mb 0.00 in0.0 mm 0.00 in0.0 mm 0.00 in0.0 mm
11:58 AM 64.2°F17.9°C 56.5°F13.6°C 76% 2.5 mph NW4.0 kmh NW 4.5 mph7.2 kmh 30.08 in1018.6 mb 0.00 in0.0 mm 0.00 in0.0 mm 0.00 in0.0 mm
12:01 PM 64.2°F17.9°C 56.5°F13.6°C 76% 2.2 mph NW3.5 kmh NW 3.4 mph5.5 kmh 30.08 in1018.6 mb 0.00 in0.0 mm 0.00 in0.0 mm 0.00 in0.0 mm
12:03 PM 64.2°F17.9°C 56.5°F13.6°C 76% 2.0 mph NNE3.2 kmh NNE 4.9 mph7.9 kmh 30.08 in1018.6 mb 0.00 in0.0 mm 0.00 in0.0 mm 0.00 in0.0 mm
12:05 PM 64.2°F17.9°C 56.1°F13.4°C 75% 2.5 mph NW4.0 kmh NW 5.4 mph8.7 kmh 30.08 in1018.6 mb 0.00 in0.0 mm 0.00 in0.0 mm 0.00 in0.0 mm
12:07 PM 64.2°F17.9°C 55.8°F13.2°C 74% 2.9 mph 4.7 kmh 5.1 mph8.2 kmh 30.08 in1018.6 mb 0.00 in0.0 mm 0.00 in0.0 mm 0.00 in0.0 mm
12:09 PM 64.2°F17.9°C 55.8°F13.2°C 74% 2.9 mph 4.7 kmh 4.7 mph7.6 kmh 30.08 in1018.6 mb 0.00 in0.0 mm 0.00 in0.0 mm 0.00 in0.0 mm
12:11 PM 64.6°F18.1°C 56.1°F13.4°C 74% 2.0 mph NNW3.2 kmh NNW 2.0 mph3.2 kmh 30.08 in1018.6 mb 0.00 in0.0 mm 0.00 in0.0 mm 0.00 in0.0 mm
12:14 PM 64.6°F18.1°C 56.1°F13.4°C 74% 1.3 mph WSW2.1 kmh WSW 1.8 mph2.9 kmh 30.08 in1018.6 mb 0.00 in0.0 mm 0.00 in0.0 mm 0.00 in0.0 mm
12:16 PM 64.4°F18.0°C 55.9°F13.3°C 74% 1.3 mph NW2.1 kmh NW 3.4 mph5.5 kmh 30.08 in1018.6 mb 0.00 in0.0 mm 0.00 in0.0 mm 0.00 in0.0 mm
12:18 PM 64.6°F18.1°C 56.1°F13.4°C 74% 1.1 mph NW1.8 kmh NW 2.0 mph3.2 kmh 30.08 in1018.6 mb 0.00 in0.0 mm 0.00 in0.0 mm 0.00 in0.0 mm
12:20 PM 64.6°F18.1°C 56.1°F13.4°C 74% 1.6 mph NNW2.6 kmh NNW 2.7 mph4.3 kmh 30.08 in1018.6 mb 0.00 in0.0 mm 0.00 in0.0 mm 0.00 in0.0 mm
12:23 PM 64.6°F18.1°C 56.1°F13.4°C 74% 1.1 mph WNW1.8 kmh WNW 1.6 mph2.6 kmh 30.08 in1018.6 mb 0.00 in0.0 mm 0.00 in0.0 mm 0.00 in0.0 mm
12:25 PM 64.8°F18.2°C 56.3°F13.5°C 74% 1.1 mph NNW1.8 kmh NNW 2.0 mph3.2 kmh 30.08 in1018.6 mb 0.00 in0.0 mm 0.00 in0.0 mm 0.00 in0.0 mm
12:27 PM 64.8°F18.2°C 56.3°F13.5°C 74% 2.0 mph 3.2 kmh 5.1 mph8.2 kmh 30.08 in1018.6 mb 0.00 in0.0 mm 0.00 in0.0 mm 0.00 in0.0 mm
12:29 PM 64.6°F18.1°C 56.1°F13.4°C 74% 1.3 mph W2.1 kmh W 4.3 mph6.9 kmh 30.08 in1018.6 mb 0.00 in0.0 mm 0.00 in0.0 mm 0.00 in0.0 mm
12:32 PM 64.6°F18.1°C 56.1°F13.4°C 74% 2.5 mph NNW4.0 kmh NNW 5.4 mph8.7 kmh 30.08 in1018.6 mb 0.00 in0.0 mm 0.00 in0.0 mm 0.00 in0.0 mm
12:34 PM 64.6°F18.1°C 56.1°F13.4°C 74% 2.7 mph NNE4.3 kmh NNE 6.3 mph10.1 kmh 30.08 in1018.6 mb 0.00 in0.0 mm 0.00 in0.0 mm 0.00 in0.0 mm
12:36 PM 64.6°F18.1°C 55.8°F13.2°C 73% 2.5 mph NNW4.0 kmh NNW 3.8 mph6.1 kmh 30.08 in1018.6 mb 0.00 in0.0 mm 0.00 in0.0 mm 0.00 in0.0 mm
12:38 PM 64.6°F18.1°C 55.8°F13.2°C 73% 2.2 mph NW3.5 kmh NW 2.9 mph4.7 kmh 30.08 in1018.6 mb 0.00 in0.0 mm 0.00 in0.0 mm 0.00 in0.0 mm
12:40 PM 64.6°F18.1°C 55.8°F13.2°C 73% 2.2 mph NNE3.5 kmh NNE 3.1 mph5.0 kmh 30.07 in1018.3 mb 0.00 in0.0 mm 0.00 in0.0 mm 0.00 in0.0 mm
12:42 PM 64.9°F18.3°C 56.5°F13.6°C 74% 1.1 mph ESE1.8 kmh ESE 1.3 mph2.1 kmh 30.08 in1018.6 mb 0.00 in0.0 mm 0.00 in0.0 mm 0.00 in0.0 mm
12:44 PM 65.1°F18.4°C 56.3°F13.5°C 73% 2.5 mph NNW4.0 kmh NNW 6.9 mph11.1 kmh 30.07 in1018.3 mb 0.00 in0.0 mm 0.00 in0.0 mm 0.00 in0.0 mm
12:47 PM 65.5°F18.6°C 56.7°F13.7°C 73% 1.8 mph NNE2.9 kmh NNE 5.1 mph8.2 kmh 30.07 in1018.3 mb 0.00 in0.0 mm 0.00 in0.0 mm 0.00 in0.0 mm
12:49 PM 65.8°F18.8°C 56.5°F13.6°C 72% 2.0 mph NW3.2 kmh NW 7.4 mph11.9 kmh 30.07 in1018.3 mb 0.00 in0.0 mm 0.00 in0.0 mm 0.00 in0.0 mm
12:51 PM 66.0°F18.9°C 56.7°F13.7°C 72% 2.2 mph NNW3.5 kmh NNW 7.4 mph11.9 kmh 30.08 in1018.6 mb 0.00 in0.0 mm 0.00 in0.0 mm 0.00 in0.0 mm
12:53 PM 66.0°F18.9°C 56.3°F13.5°C 71% 2.2 mph NNW3.5 kmh NNW 6.5 mph10.5 kmh 30.07 in1018.3 mb 0.00 in0.0 mm 0.00 in0.0 mm 0.00 in0.0 mm
12:55 PM 66.0°F18.9°C 56.3°F13.5°C 71% 1.8 mph 2.9 kmh 3.8 mph6.1 kmh 30.07 in1018.3 mb 0.00 in0.0 mm 0.00 in0.0 mm 0.00 in0.0 mm
12:58 PM 65.8°F18.8°C 56.1°F13.4°C 71% 2.2 mph 3.5 kmh 4.9 mph7.9 kmh 30.08 in1018.6 mb 0.00 in0.0 mm 0.00 in0.0 mm 0.00 in0.0 mm
01:00 PM 65.8°F18.8°C 56.1°F13.4°C 71% 1.8 mph NW2.9 kmh NW 4.5 mph7.2 kmh 30.08 in1018.6 mb 0.00 in0.0 mm 0.00 in0.0 mm 0.00 in0.0 mm
01:02 PM 65.7°F18.7°C 55.9°F13.3°C 71% 2.2 mph NNW3.5 kmh NNW 4.3 mph6.9 kmh 30.07 in1018.3 mb 0.00 in0.0 mm 0.00 in0.0 mm 0.00 in0.0 mm
01:04 PM 65.7°F18.7°C 55.9°F13.3°C 71% 2.5 mph WNW4.0 kmh WNW 6.3 mph10.1 kmh 30.08 in1018.6 mb 0.00 in0.0 mm 0.00 in0.0 mm 0.00 in0.0 mm
01:06 PM 65.5°F18.6°C 55.8°F13.2°C 71% 2.7 mph NNW4.3 kmh NNW 6.3 mph10.1 kmh 30.08 in1018.6 mb 0.00 in0.0 mm 0.00 in0.0 mm 0.00 in0.0 mm
01:09 PM 65.8°F18.8°C 56.1°F13.4°C 71% 1.8 mph 2.9 kmh 3.8 mph6.1 kmh 30.08 in1018.6 mb 0.00 in0.0 mm 0.00 in0.0 mm 0.00 in0.0 mm
01:11 PM 66.0°F18.9°C 56.3°F13.5°C 71% 2.0 mph W3.2 kmh W 3.4 mph5.5 kmh 30.08 in1018.6 mb 0.00 in0.0 mm 0.00 in0.0 mm 0.00 in0.0 mm
01:13 PM 65.8°F18.8°C 55.8°F13.2°C 70% 3.1 mph W5.0 kmh W 8.5 mph13.7 kmh 30.07 in1018.3 mb 0.00 in0.0 mm 0.00 in0.0 mm 0.00 in0.0 mm
01:15 PM 65.8°F18.8°C 55.8°F13.2°C 70% 2.9 mph NNW4.7 kmh NNW 5.6 mph9.0 kmh 30.08 in1018.6 mb 0.00 in0.0 mm 0.00 in0.0 mm 0.00 in0.0 mm
01:17 PM 66.0°F18.9°C 56.3°F13.5°C 71% 3.4 mph NW5.5 kmh NW 8.9 mph14.3 kmh 30.08 in1018.6 mb 0.00 in0.0 mm 0.00 in0.0 mm 0.00 in0.0 mm
01:19 PM 66.0°F18.9°C 55.9°F13.3°C 70% 2.5 mph NNW4.0 kmh NNW 4.5 mph7.2 kmh 30.08 in1018.6 mb 0.00 in0.0 mm 0.00 in0.0 mm 0.00 in0.0 mm
01:22 PM 66.0°F18.9°C 55.9°F13.3°C 70% 2.0 mph 3.2 kmh 2.5 mph4.0 kmh 30.08 in1018.6 mb 0.00 in0.0 mm 0.00 in0.0 mm 0.00 in0.0 mm
01:24 PM 66.0°F18.9°C 55.9°F13.3°C 70% 2.0 mph NW3.2 kmh NW 3.6 mph5.8 kmh 30.08 in1018.6 mb 0.00 in0.0 mm 0.00 in0.0 mm 0.00 in0.0 mm
01:26 PM 66.2°F19.0°C 56.1°F13.4°C 70% 2.2 mph NW3.5 kmh NW 9.4 mph15.1 kmh 30.08 in1018.6 mb 0.00 in0.0 mm 0.00 in0.0 mm 0.00 in0.0 mm
01:28 PM 66.2°F19.0°C 56.1°F13.4°C 70% 2.5 mph NNW4.0 kmh NNW 7.2 mph11.6 kmh 30.08 in1018.6 mb 0.00 in0.0 mm 0.00 in0.0 mm 0.00 in0.0 mm
01:30 PM 66.2°F19.0°C 56.1°F13.4°C 70% 1.8 mph 2.9 kmh 2.5 mph4.0 kmh 30.08 in1018.6 mb 0.00 in0.0 mm 0.00 in0.0 mm 0.00 in0.0 mm
01:33 PM 66.2°F19.0°C 56.1°F13.4°C 70% 2.0 mph NNW3.2 kmh NNW 3.8 mph6.1 kmh 30.08 in1018.6 mb 0.00 in0.0 mm 0.00 in0.0 mm 0.00 in0.0 mm
01:35 PM 66.2°F19.0°C 56.1°F13.4°C 70% 1.6 mph W2.6 kmh W 3.1 mph5.0 kmh 30.07 in1018.3 mb 0.00 in0.0 mm 0.00 in0.0 mm 0.00 in0.0 mm
01:37 PM 66.2°F19.0°C 55.8°F13.2°C 69% 1.8 mph NNE2.9 kmh NNE 3.8 mph6.1 kmh 30.07 in1018.3 mb 0.00 in0.0 mm 0.00 in0.0 mm 0.00 in0.0 mm
01:39 PM 66.0°F18.9°C 55.9°F13.3°C 70% 1.3 mph 2.1 kmh 2.2 mph3.5 kmh 30.07 in1018.3 mb 0.00 in0.0 mm 0.00 in0.0 mm 0.00 in0.0 mm
01:42 PM 66.4°F19.1°C 56.3°F13.5°C 70% 2.7 mph 4.3 kmh 8.5 mph13.7 kmh 30.07 in1018.3 mb 0.00 in0.0 mm 0.00 in0.0 mm 0.00 in0.0 mm
01:44 PM 66.2°F19.0°C 56.1°F13.4°C 70% 3.6 mph 5.8 kmh 6.9 mph11.1 kmh 30.07 in1018.3 mb 0.00 in0.0 mm 0.00 in0.0 mm 0.00 in0.0 mm
01:46 PM 66.2°F19.0°C 56.1°F13.4°C 70% 2.9 mph NNW4.7 kmh NNW 4.5 mph7.2 kmh 30.07 in1018.3 mb 0.00 in0.0 mm 0.00 in0.0 mm 0.00 in0.0 mm
01:48 PM 66.6°F19.2°C 56.5°F13.6°C 70% 2.9 mph NNW4.7 kmh NNW 4.0 mph6.4 kmh 30.07 in1018.3 mb 0.00 in0.0 mm 0.00 in0.0 mm 0.00 in0.0 mm
01:51 PM 66.7°F19.3°C 56.7°F13.7°C 70% 2.5 mph 4.0 kmh 4.0 mph6.4 kmh 30.08 in1018.6 mb 0.00 in0.0 mm 0.00 in0.0 mm 0.00 in0.0 mm
01:53 PM 66.7°F19.3°C 56.7°F13.7°C 70% 3.4 mph 5.5 kmh 6.5 mph10.5 kmh 30.07 in1018.3 mb 0.00 in0.0 mm 0.00 in0.0 mm 0.00 in0.0 mm
01:55 PM 66.4°F19.1°C 56.3°F13.5°C 70% 5.1 mph NW8.2 kmh NW 11.9 mph19.2 kmh 30.07 in1018.3 mb 0.00 in0.0 mm 0.00 in0.0 mm 0.00 in0.0 mm
01:57 PM 66.4°F19.1°C 56.3°F13.5°C 70% 4.0 mph NW6.4 kmh NW 6.9 mph11.1 kmh 30.07 in1018.3 mb 0.00 in0.0 mm 0.00 in0.0 mm 0.00 in0.0 mm
01:59 PM 66.4°F19.1°C 56.7°F13.7°C 71% 3.6 mph 5.8 kmh 6.3 mph10.1 kmh 30.07 in1018.3 mb 0.00 in0.0 mm 0.00 in0.0 mm 0.00 in0.0 mm
02:02 PM 66.4°F19.1°C 56.7°F13.7°C 71% 2.2 mph SSW3.5 kmh SSW 2.5 mph4.0 kmh 30.07 in1018.3 mb 0.00 in0.0 mm 0.00 in0.0 mm 0.00 in0.0 mm
02:04 PM 66.6°F19.2°C 56.5°F13.6°C 70% 2.5 mph WSW4.0 kmh WSW 4.7 mph7.6 kmh 30.07 in1018.3 mb 0.00 in0.0 mm 0.00 in0.0 mm 0.00 in0.0 mm
02:06 PM 66.6°F19.2°C 56.5°F13.6°C 70% 3.4 mph NNW5.5 kmh NNW 8.3 mph13.4 kmh 30.07 in1018.3 mb 0.00 in0.0 mm 0.00 in0.0 mm 0.00 in0.0 mm
02:08 PM 66.7°F19.3°C 56.7°F13.7°C 70% 2.5 mph SSE4.0 kmh SSE 3.8 mph6.1 kmh 30.07 in1018.3 mb 0.00 in0.0 mm 0.00 in0.0 mm 0.00 in0.0 mm
02:10 PM 66.9°F19.4°C 56.8°F13.8°C 70% 3.8 mph NE6.1 kmh NE 9.2 mph14.8 kmh 30.07 in1018.3 mb 0.00 in0.0 mm 0.00 in0.0 mm 0.00 in0.0 mm
02:12 PM 66.9°F19.4°C 56.8°F13.8°C 70% 3.1 mph NNW5.0 kmh NNW 4.9 mph7.9 kmh 30.07 in1018.3 mb 0.00 in0.0 mm 0.00 in0.0 mm 0.00 in0.0 mm
02:14 PM 66.9°F19.4°C 56.5°F13.6°C 69% 3.1 mph NW5.0 kmh NW 5.4 mph8.7 kmh 30.07 in1018.3 mb 0.00 in0.0 mm 0.00 in0.0 mm 0.00 in0.0 mm
02:17 PM 66.9°F19.4°C 56.5°F13.6°C 69% 2.7 mph NE4.3 kmh NE 4.5 mph7.2 kmh 30.07 in1018.3 mb 0.00 in0.0 mm 0.00 in0.0 mm 0.00 in0.0 mm
02:19 PM 66.9°F19.4°C 56.5°F13.6°C 69% 3.1 mph WNW5.0 kmh WNW 12.5 mph20.1 kmh 30.07 in1018.3 mb 0.00 in0.0 mm 0.00 in0.0 mm 0.00 in0.0 mm
02:21 PM 66.9°F19.4°C 56.5°F13.6°C 69% 2.2 mph WSW3.5 kmh WSW 3.8 mph6.1 kmh 30.07 in1018.3 mb 0.00 in0.0 mm 0.00 in0.0 mm 0.00 in0.0 mm
02:23 PM 66.9°F19.4°C 56.5°F13.6°C 69% 2.2 mph NE3.5 kmh NE 3.8 mph6.1 kmh 30.07 in1018.3 mb 0.00 in0.0 mm 0.00 in0.0 mm 0.00 in0.0 mm
02:25 PM 66.9°F19.4°C 56.5°F13.6°C 69% 3.1 mph NNE5.0 kmh NNE 7.4 mph11.9 kmh 30.07 in1018.3 mb 0.00 in0.0 mm 0.00 in0.0 mm 0.00 in0.0 mm
02:27 PM 66.7°F19.3°C 56.3°F13.5°C 69% 4.5 mph 7.2 kmh 10.5 mph16.9 kmh 30.07 in1018.3 mb 0.00 in0.0 mm 0.00 in0.0 mm 0.00 in0.0 mm
02:29 PM 66.6°F19.2°C 56.1°F13.4°C 69% 4.7 mph WSW7.6 kmh WSW 9.4 mph15.1 kmh 30.07 in1018.3 mb 0.00 in0.0 mm 0.00 in0.0 mm 0.00 in0.0 mm
02:32 PM 66.6°F19.2°C 56.1°F13.4°C 69% 4.5 mph NNE7.2 kmh NNE 6.0 mph9.7 kmh 30.07 in1018.3 mb 0.00 in0.0 mm 0.00 in0.0 mm 0.00 in0.0 mm
02:36 PM 66.7°F19.3°C 56.7°F13.7°C 70% 3.4 mph NE5.5 kmh NE 8.3 mph13.4 kmh 30.07 in1018.3 mb 0.00 in0.0 mm 0.00 in0.0 mm 0.00 in0.0 mm
02:38 PM 66.9°F19.4°C 56.5°F13.6°C 69% 4.0 mph NNE6.4 kmh NNE 7.8 mph12.6 kmh 30.07 in1018.3 mb 0.00 in0.0 mm 0.00 in0.0 mm 0.00 in0.0 mm
02:40 PM 67.3°F19.6°C 56.8°F13.8°C 69% 3.8 mph NW6.1 kmh NW 6.7 mph10.8 kmh 30.07 in1018.3 mb 0.00 in0.0 mm 0.00 in0.0 mm 0.00 in0.0 mm
02:42 PM 67.3°F19.6°C 56.3°F13.5°C 68% 4.3 mph 6.9 kmh 8.3 mph13.4 kmh 30.07 in1018.3 mb 0.00 in0.0 mm 0.00 in0.0 mm 0.00 in0.0 mm
02:44 PM 67.6°F19.8°C 56.7°F13.7°C 68% 4.7 mph 7.6 kmh 9.2 mph14.8 kmh 30.07 in1018.3 mb 0.00 in0.0 mm 0.00 in0.0 mm 0.00 in0.0 mm
02:47 PM 67.8°F19.9°C 57.2°F14.0°C 69% 3.4 mph NNE5.5 kmh NNE 3.4 mph5.5 kmh 30.07 in1018.3 mb 0.00 in0.0 mm 0.00 in0.0 mm 0.00 in0.0 mm
02:49 PM 68.0°F20.0°C 57.0°F13.9°C 68% 3.1 mph NNW5.0 kmh NNW 6.0 mph9.7 kmh 30.07 in1018.3 mb 0.00 in0.0 mm 0.00 in0.0 mm 0.00 in0.0 mm
02:51 PM 68.2°F20.1°C 57.2°F14.0°C 68% 3.4 mph WNW5.5 kmh WNW 8.9 mph14.3 kmh 30.07 in1018.3 mb 0.00 in0.0 mm 0.00 in0.0 mm 0.00 in0.0 mm
02:53 PM 67.8°F19.9°C 56.1°F13.4°C 66% 4.0 mph NW6.4 kmh NW 8.1 mph13.0 kmh 30.07 in1018.3 mb 0.00 in0.0 mm 0.00 in0.0 mm 0.00 in0.0 mm
02:56 PM 67.8°F19.9°C 56.5°F13.6°C 67% 3.1 mph WSW5.0 kmh WSW 3.6 mph5.8 kmh 30.07 in1018.3 mb 0.00 in0.0 mm 0.00 in0.0 mm 0.00 in0.0 mm
02:58 PM 68.2°F20.1°C 56.8°F13.8°C 67% 3.6 mph NW5.8 kmh NW 5.8 mph9.3 kmh 30.07 in1018.3 mb 0.00 in0.0 mm 0.00 in0.0 mm 0.00 in0.0 mm
03:00 PM 68.0°F20.0°C 56.7°F13.7°C 67% 3.6 mph W5.8 kmh W 4.5 mph7.2 kmh 30.07 in1018.3 mb 0.00 in0.0 mm 0.00 in0.0 mm 0.00 in0.0 mm
03:02 PM 67.8°F19.9°C 56.5°F13.6°C 67% 2.9 mph NW4.7 kmh NW 2.5 mph4.0 kmh 30.06 in1017.9 mb 0.00 in0.0 mm 0.00 in0.0 mm 0.00 in0.0 mm
03:04 PM 67.8°F19.9°C 56.8°F13.8°C 68% 2.9 mph WNW4.7 kmh WNW 4.5 mph7.2 kmh 30.06 in1017.9 mb 0.00 in0.0 mm 0.00 in0.0 mm 0.00 in0.0 mm
03:06 PM 67.8°F19.9°C 56.5°F13.6°C 67% 1.8 mph W2.9 kmh W 2.5 mph4.0 kmh 30.06 in1017.9 mb 0.00 in0.0 mm 0.00 in0.0 mm 0.00 in0.0 mm
03:09 PM 67.6°F19.8°C 56.3°F13.5°C 67% 1.6 mph W2.6 kmh W 3.4 mph5.5 kmh 30.07 in1018.3 mb 0.00 in0.0 mm 0.00 in0.0 mm 0.00 in0.0 mm
03:11 PM 67.5°F19.7°C 56.1°F13.4°C 67% 1.6 mph W2.6 kmh W 2.5 mph4.0 kmh 30.07 in1018.3 mb 0.00 in0.0 mm 0.00 in0.0 mm 0.00 in0.0 mm
03:13 PM 67.5°F19.7°C 56.5°F13.6°C 68% 1.8 mph W2.9 kmh W 3.8 mph6.1 kmh 30.07 in1018.3 mb 0.00 in0.0 mm 0.00 in0.0 mm 0.00 in0.0 mm
03:15 PM 67.6°F19.8°C 56.7°F13.7°C 68% 1.8 mph WNW2.9 kmh WNW 4.0 mph6.4 kmh 30.07 in1018.3 mb 0.00 in0.0 mm 0.00 in0.0 mm 0.00 in0.0 mm
03:17 PM 67.3°F19.6°C 56.3°F13.5°C 68% 2.7 mph NNW4.3 kmh NNW 6.0 mph9.7 kmh 30.07 in1018.3 mb 0.00 in0.0 mm 0.00 in0.0 mm 0.00 in0.0 mm
03:19 PM 67.3°F19.6°C 56.3°F13.5°C 68% 2.5 mph NW4.0 kmh NW 5.1 mph8.2 kmh 30.07 in1018.3 mb 0.00 in0.0 mm 0.00 in0.0 mm 0.00 in0.0 mm
03:22 PM 67.1°F19.5°C 56.1°F13.4°C 68% 2.9 mph 4.7 kmh 5.1 mph8.2 kmh 30.07 in1018.3 mb 0.00 in0.0 mm 0.00 in0.0 mm 0.00 in0.0 mm
03:24 PM 67.3°F19.6°C 56.3°F13.5°C 68% 3.1 mph NNE5.0 kmh NNE 5.6 mph9.0 kmh 30.07 in1018.3 mb 0.00 in0.0 mm 0.00 in0.0 mm 0.00 in0.0 mm
03:26 PM 67.6°F19.8°C 56.7°F13.7°C 68% 2.9 mph W4.7 kmh W 5.4 mph8.7 kmh 30.07 in1018.3 mb 0.00 in0.0 mm 0.00 in0.0 mm 0.00 in0.0 mm
03:28 PM 67.8°F19.9°C 56.8°F13.8°C 68% 3.1 mph NW5.0 kmh NW 5.8 mph9.3 kmh 30.07 in1018.3 mb 0.00 in0.0 mm 0.00 in0.0 mm 0.00 in0.0 mm
03:30 PM 67.8°F19.9°C 56.5°F13.6°C 67% 3.4 mph NNW5.5 kmh NNW 5.1 mph8.2 kmh 30.07 in1018.3 mb 0.00 in0.0 mm 0.00 in0.0 mm 0.00 in0.0 mm
03:33 PM 67.8°F19.9°C 56.5°F13.6°C 67% 3.4 mph WNW5.5 kmh WNW 5.4 mph8.7 kmh 30.07 in1018.3 mb 0.00 in0.0 mm 0.00 in0.0 mm 0.00 in0.0 mm
03:35 PM 67.6°F19.8°C 56.3°F13.5°C 67% 3.6 mph 5.8 kmh 6.3 mph10.1 kmh 30.07 in1018.3 mb 0.00 in0.0 mm 0.00 in0.0 mm 0.00 in0.0 mm
03:37 PM 67.5°F19.7°C 56.1°F13.4°C 67% 3.1 mph NW5.0 kmh NW 5.1 mph8.2 kmh 30.07 in1018.3 mb 0.00 in0.0 mm 0.00 in0.0 mm 0.00 in0.0 mm
03:39 PM 67.6°F19.8°C 56.3°F13.5°C 67% 3.1 mph NNW5.0 kmh NNW 4.9 mph7.9 kmh 30.07 in1018.3 mb 0.00 in0.0 mm 0.00 in0.0 mm 0.00 in0.0 mm
03:42 PM 67.6°F19.8°C 55.9°F13.3°C 66% 4.7 mph 7.6 kmh 10.3 mph16.6 kmh 30.07 in1018.3 mb 0.00 in0.0 mm 0.00 in0.0 mm 0.00 in0.0 mm
03:44 PM 67.8°F19.9°C 56.1°F13.4°C 66% 5.1 mph NNW8.2 kmh NNW 7.2 mph11.6 kmh 30.07 in1018.3 mb 0.00 in0.0 mm 0.00 in0.0 mm 0.00 in0.0 mm
03:46 PM 67.8°F19.9°C 56.1°F13.4°C 66% 4.9 mph 7.9 kmh 11.9 mph19.2 kmh 30.06 in1017.9 mb 0.00 in0.0 mm 0.00 in0.0 mm 0.00 in0.0 mm
03:48 PM 67.8°F19.9°C 56.1°F13.4°C 66% 3.8 mph NNW6.1 kmh NNW 5.4 mph8.7 kmh 30.06 in1017.9 mb 0.00 in0.0 mm 0.00 in0.0 mm 0.00 in0.0 mm
03:50 PM 67.8°F19.9°C 55.6°F13.1°C 65% 2.7 mph W4.3 kmh W 4.3 mph6.9 kmh 30.07 in1018.3 mb 0.00 in0.0 mm 0.00 in0.0 mm 0.00 in0.0 mm
03:52 PM 67.6°F19.8°C 55.4°F13.0°C 65% 3.1 mph NNW5.0 kmh NNW 5.6 mph9.0 kmh 30.07 in1018.3 mb 0.00 in0.0 mm 0.00 in0.0 mm 0.00 in0.0 mm
03:55 PM 67.3°F19.6°C 55.0°F12.8°C 65% 3.4 mph 5.5 kmh 6.0 mph9.7 kmh 30.07 in1018.3 mb 0.00 in0.0 mm 0.00 in0.0 mm 0.00 in0.0 mm
03:57 PM 67.1°F19.5°C 54.9°F12.7°C 65% 3.4 mph 5.5 kmh 7.4 mph11.9 kmh 30.07 in1018.3 mb 0.00 in0.0 mm 0.00 in0.0 mm 0.00 in0.0 mm
03:59 PM 66.9°F19.4°C 55.2°F12.9°C 66% 2.7 mph SW4.3 kmh SW 4.5 mph7.2 kmh 30.07 in1018.3 mb 0.00 in0.0 mm 0.00 in0.0 mm 0.00 in0.0 mm
04:01 PM 66.9°F19.4°C 55.2°F12.9°C 66% 3.6 mph 5.8 kmh 5.6 mph9.0 kmh 30.07 in1018.3 mb 0.00 in0.0 mm 0.00 in0.0 mm 0.00 in0.0 mm
04:04 PM 66.9°F19.4°C 55.2°F12.9°C 66% 4.5 mph 7.2 kmh 8.9 mph14.3 kmh 30.07 in1018.3 mb 0.00 in0.0 mm 0.00 in0.0 mm 0.00 in0.0 mm
04:06 PM 66.9°F19.4°C 55.6°F13.1°C 67% 3.4 mph NNE5.5 kmh NNE 4.3 mph6.9 kmh 30.06 in1017.9 mb 0.00 in0.0 mm 0.00 in0.0 mm 0.00 in0.0 mm
04:08 PM 67.1°F19.5°C 55.4°F13.0°C 66% 4.0 mph NNW6.4 kmh NNW 10.3 mph16.6 kmh 30.07 in1018.3 mb 0.00 in0.0 mm 0.00 in0.0 mm 0.00 in0.0 mm
04:10 PM 67.3°F19.6°C 55.6°F13.1°C 66% 5.1 mph 8.2 kmh 10.5 mph16.9 kmh 30.07 in1018.3 mb 0.00 in0.0 mm 0.00 in0.0 mm 0.00 in0.0 mm
04:12 PM 67.3°F19.6°C 55.0°F12.8°C 65% 4.9 mph S7.9 kmh S 6.0 mph9.7 kmh 30.07 in1018.3 mb 0.00 in0.0 mm 0.00 in0.0 mm 0.00 in0.0 mm
04:14 PM 67.6°F19.8°C 55.4°F13.0°C 65% 4.9 mph NNE7.9 kmh NNE 7.6 mph12.2 kmh 30.06 in1017.9 mb 0.00 in0.0 mm 0.00 in0.0 mm 0.00 in0.0 mm
04:16 PM 67.8°F19.9°C 55.6°F13.1°C 65% 4.3 mph WNW6.9 kmh WNW 5.8 mph9.3 kmh 30.06 in1017.9 mb 0.00 in0.0 mm 0.00 in0.0 mm 0.00 in0.0 mm
04:19 PM 68.2°F20.1°C 55.9°F13.3°C 65% 4.9 mph 7.9 kmh 7.6 mph12.2 kmh 30.06 in1017.9 mb 0.00 in0.0 mm 0.00 in0.0 mm 0.00 in0.0 mm
04:21 PM 68.2°F20.1°C 55.9°F13.3°C 65% 4.9 mph W7.9 kmh W 12.1 mph19.5 kmh 30.06 in1017.9 mb 0.00 in0.0 mm 0.00 in0.0 mm 0.00 in0.0 mm
04:23 PM 68.0°F20.0°C 55.8°F13.2°C 65% 4.9 mph NW7.9 kmh NW 9.2 mph14.8 kmh 30.06 in1017.9 mb 0.00 in0.0 mm 0.00 in0.0 mm 0.00 in0.0 mm
04:25 PM 67.6°F19.8°C 55.4°F13.0°C 65% 4.7 mph WSW7.6 kmh WSW 7.6 mph12.2 kmh 30.06 in1017.9 mb 0.00 in0.0 mm 0.00 in0.0 mm 0.00 in0.0 mm
04:27 PM 67.6°F19.8°C 55.4°F13.0°C 65% 3.6 mph S5.8 kmh S 3.4 mph5.5 kmh 30.06 in1017.9 mb 0.00 in0.0 mm 0.00 in0.0 mm 0.00 in0.0 mm
04:30 PM 67.8°F19.9°C 56.1°F13.4°C 66% 4.5 mph W7.2 kmh W 13.0 mph20.9 kmh 30.06 in1017.9 mb 0.00 in0.0 mm 0.00 in0.0 mm 0.00 in0.0 mm
04:32 PM 68.2°F20.1°C 56.3°F13.5°C 66% 4.5 mph WNW7.2 kmh WNW 7.2 mph11.6 kmh 30.06 in1017.9 mb 0.00 in0.0 mm 0.00 in0.0 mm 0.00 in0.0 mm
04:34 PM 68.2°F20.1°C 56.3°F13.5°C 66% 4.7 mph NW7.6 kmh NW 9.4 mph15.1 kmh 30.06 in1017.9 mb 0.00 in0.0 mm 0.00 in0.0 mm 0.00 in0.0 mm
04:36 PM 67.8°F19.9°C 55.6°F13.1°C 65% 4.5 mph W7.2 kmh W 11.6 mph18.7 kmh 30.06 in1017.9 mb 0.00 in0.0 mm 0.00 in0.0 mm 0.00 in0.0 mm
04:38 PM 67.3°F19.6°C 55.6°F13.1°C 66% 4.3 mph NW6.9 kmh NW 7.2 mph11.6 kmh 30.06 in1017.9 mb 0.00 in0.0 mm 0.00 in0.0 mm 0.00 in0.0 mm
04:41 PM 67.1°F19.5°C 55.4°F13.0°C 66% 5.1 mph 8.2 kmh 11.0 mph17.7 kmh 30.06 in1017.9 mb 0.00 in0.0 mm 0.00 in0.0 mm 0.00 in0.0 mm
04:43 PM 66.7°F19.3°C 55.4°F13.0°C 67% 5.4 mph NNW8.7 kmh NNW 9.8 mph15.8 kmh 30.06 in1017.9 mb 0.00 in0.0 mm 0.00 in0.0 mm 0.00 in0.0 mm
04:45 PM 66.7°F19.3°C 55.4°F13.0°C 67% 4.7 mph 7.6 kmh 6.5 mph10.5 kmh 30.06 in1017.9 mb 0.00 in0.0 mm 0.00 in0.0 mm 0.00 in0.0 mm
04:47 PM 66.7°F19.3°C 55.4°F13.0°C 67% 4.3 mph WNW6.9 kmh WNW 5.6 mph9.0 kmh 30.06 in1017.9 mb 0.00 in0.0 mm 0.00 in0.0 mm 0.00 in0.0 mm
04:49 PM 66.6°F19.2°C 55.2°F12.9°C 67% 4.3 mph NNW6.9 kmh NNW 7.4 mph11.9 kmh 30.06 in1017.9 mb 0.00 in0.0 mm 0.00 in0.0 mm 0.00 in0.0 mm
04:52 PM 66.7°F19.3°C 55.8°F13.2°C 68% 2.9 mph S4.7 kmh S 2.5 mph4.0 kmh 30.06 in1017.9 mb 0.00 in0.0 mm 0.00 in0.0 mm 0.00 in0.0 mm
04:54 PM 66.7°F19.3°C 55.8°F13.2°C 68% 4.0 mph 6.4 kmh 11.9 mph19.2 kmh 30.06 in1017.9 mb 0.00 in0.0 mm 0.00 in0.0 mm 0.00 in0.0 mm
04:56 PM 66.6°F19.2°C 55.6°F13.1°C 68% 4.0 mph SSW6.4 kmh SSW 8.9 mph14.3 kmh 30.06 in1017.9 mb 0.00 in0.0 mm 0.00 in0.0 mm 0.00 in0.0 mm
04:58 PM 66.6°F19.2°C 55.6°F13.1°C 68% 3.6 mph NNW5.8 kmh NNW 5.6 mph9.0 kmh 30.06 in1017.9 mb 0.00 in0.0 mm 0.00 in0.0 mm 0.00 in0.0 mm
05:00 PM 66.7°F19.3°C 55.8°F13.2°C 68% 3.4 mph 5.5 kmh 6.0 mph9.7 kmh 30.06 in1017.9 mb 0.00 in0.0 mm 0.00 in0.0 mm 0.00 in0.0 mm
05:02 PM 66.7°F19.3°C 55.8°F13.2°C 68% 4.5 mph NNW7.2 kmh NNW 9.8 mph15.8 kmh 30.06 in1017.9 mb 0.00 in0.0 mm 0.00 in0.0 mm 0.00 in0.0 mm
05:05 PM 66.9°F19.4°C 55.9°F13.3°C 68% 4.7 mph NNW7.6 kmh NNW 7.2 mph11.6 kmh 30.06 in1017.9 mb 0.00 in0.0 mm 0.00 in0.0 mm 0.00 in0.0 mm
05:07 PM 66.7°F19.3°C 55.8°F13.2°C 68% 5.4 mph NNE8.7 kmh NNE 9.6 mph15.4 kmh 30.06 in1017.9 mb 0.00 in0.0 mm 0.00 in0.0 mm 0.00 in0.0 mm
05:09 PM 66.6°F19.2°C 55.6°F13.1°C 68% 5.6 mph NNE9.0 kmh NNE 9.2 mph14.8 kmh 30.06 in1017.9 mb 0.00 in0.0 mm 0.00 in0.0 mm 0.00 in0.0 mm
05:11 PM 66.4°F19.1°C 55.6°F13.1°C 68% 5.6 mph NNE9.0 kmh NNE 9.6 mph15.4 kmh 30.06 in1017.9 mb 0.00 in0.0 mm 0.00 in0.0 mm 0.00 in0.0 mm
05:14 PM 66.4°F19.1°C 55.6°F13.1°C 68% 4.3 mph WSW6.9 kmh WSW 7.6 mph12.2 kmh 30.06 in1017.9 mb 0.00 in0.0 mm 0.00 in0.0 mm 0.00 in0.0 mm
05:16 PM 66.6°F19.2°C 55.6°F13.1°C 68% 3.1 mph NW5.0 kmh NW 4.5 mph7.2 kmh 30.06 in1017.9 mb 0.00 in0.0 mm 0.00 in0.0 mm 0.00 in0.0 mm
05:18 PM 66.7°F19.3°C 55.8°F13.2°C 68% 3.4 mph 5.5 kmh 7.2 mph11.6 kmh 30.06 in1017.9 mb 0.00 in0.0 mm 0.00 in0.0 mm 0.00 in0.0 mm
05:20 PM 66.6°F19.2°C 55.6°F13.1°C 68% 4.7 mph NNW7.6 kmh NNW 10.5 mph16.9 kmh 30.06 in1017.9 mb 0.00 in0.0 mm 0.00 in0.0 mm 0.00 in0.0 mm
05:23 PM 66.6°F19.2°C 56.1°F13.4°C 69% 4.9 mph 7.9 kmh 8.1 mph13.0 kmh 30.06 in1017.9 mb 0.00 in0.0 mm 0.00 in0.0 mm 0.00 in0.0 mm
05:25 PM 66.4°F19.1°C 55.9°F13.3°C 69% 4.7 mph NW7.6 kmh NW 10.3 mph16.6 kmh 30.06 in1017.9 mb 0.00 in0.0 mm 0.00 in0.0 mm 0.00 in0.0 mm
05:27 PM 66.4°F19.1°C 55.9°F13.3°C 69% 3.4 mph 5.5 kmh 3.1 mph5.0 kmh 30.06 in1017.9 mb 0.00 in0.0 mm 0.00 in0.0 mm 0.00 in0.0 mm
05:29 PM 66.2°F19.0°C 56.1°F13.4°C 70% 3.8 mph 6.1 kmh 6.3 mph10.1 kmh 30.06 in1017.9 mb 0.00 in0.0 mm 0.00 in0.0 mm 0.00 in0.0 mm
05:32 PM 66.4°F19.1°C 56.3°F13.5°C 70% 4.3 mph SW6.9 kmh SW 8.9 mph14.3 kmh 30.06 in1017.9 mb 0.00 in0.0 mm 0.00 in0.0 mm 0.00 in0.0 mm
05:34 PM 66.2°F19.0°C 56.1°F13.4°C 70% 3.8 mph WNW6.1 kmh WNW 5.1 mph8.2 kmh 30.06 in1017.9 mb 0.00 in0.0 mm 0.00 in0.0 mm 0.00 in0.0 mm
05:36 PM 66.0°F18.9°C 56.3°F13.5°C 71% 3.6 mph WNW5.8 kmh WNW 5.4 mph8.7 kmh 30.06 in1017.9 mb 0.00 in0.0 mm 0.00 in0.0 mm 0.00 in0.0 mm
05:38 PM 66.0°F18.9°C 56.3°F13.5°C 71% 4.0 mph NNW6.4 kmh NNW 6.5 mph10.5 kmh 30.06 in1017.9 mb 0.00 in0.0 mm 0.00 in0.0 mm 0.00 in0.0 mm
05:40 PM 65.7°F18.7°C 55.9°F13.3°C 71% 3.6 mph W5.8 kmh W 6.5 mph10.5 kmh 30.06 in1017.9 mb 0.00 in0.0 mm 0.00 in0.0 mm 0.00 in0.0 mm
05:42 PM 65.5°F18.6°C 55.8°F13.2°C 71% 3.6 mph WNW5.8 kmh WNW 6.5 mph10.5 kmh 30.06 in1017.9 mb 0.00 in0.0 mm 0.00 in0.0 mm 0.00 in0.0 mm
05:45 PM 65.5°F18.6°C 55.8°F13.2°C 71% 3.4 mph NW5.5 kmh NW 6.7 mph10.8 kmh 30.06 in1017.9 mb 0.00 in0.0 mm 0.00 in0.0 mm 0.00 in0.0 mm
05:47 PM 65.7°F18.7°C 55.9°F13.3°C 71% 3.4 mph 5.5 kmh 5.4 mph8.7 kmh 30.07 in1018.3 mb 0.00 in0.0 mm 0.00 in0.0 mm 0.00 in0.0 mm
05:49 PM 65.7°F18.7°C 55.9°F13.3°C 71% 4.7 mph 7.6 kmh 8.7 mph14.0 kmh 30.07 in1018.3 mb 0.00 in0.0 mm 0.00 in0.0 mm 0.00 in0.0 mm
05:51 PM 65.3°F18.5°C 55.6°F13.1°C 71% 4.5 mph NNW7.2 kmh NNW 7.2 mph11.6 kmh 30.07 in1018.3 mb 0.00 in0.0 mm 0.00 in0.0 mm 0.00 in0.0 mm
05:54 PM 65.1°F18.4°C 55.4°F13.0°C 71% 4.3 mph NE6.9 kmh NE 6.3 mph10.1 kmh 30.06 in1017.9 mb 0.00 in0.0 mm 0.00 in0.0 mm 0.00 in0.0 mm
05:56 PM 64.9°F18.3°C 55.8°F13.2°C 72% 3.8 mph NNE6.1 kmh NNE 4.7 mph7.6 kmh 30.07 in1018.3 mb 0.00 in0.0 mm 0.00 in0.0 mm 0.00 in0.0 mm
05:58 PM 65.1°F18.4°C 55.9°F13.3°C 72% 3.1 mph WNW5.0 kmh WNW 4.0 mph6.4 kmh 30.06 in1017.9 mb 0.00 in0.0 mm 0.00 in0.0 mm 0.00 in0.0 mm
06:00 PM 64.9°F18.3°C 56.1°F13.4°C 73% 4.3 mph NW6.9 kmh NW 7.6 mph12.2 kmh 30.07 in1018.3 mb 0.00 in0.0 mm 0.00 in0.0 mm 0.00 in0.0 mm
06:02 PM 64.9°F18.3°C 56.1°F13.4°C 73% 4.3 mph WNW6.9 kmh WNW 9.2 mph14.8 kmh 30.07 in1018.3 mb 0.00 in0.0 mm 0.00 in0.0 mm 0.00 in0.0 mm
06:05 PM 64.8°F18.2°C 55.9°F13.3°C 73% 3.8 mph SSW6.1 kmh SSW 6.3 mph10.1 kmh 30.07 in1018.3 mb 0.00 in0.0 mm 0.00 in0.0 mm 0.00 in0.0 mm
06:07 PM 64.8°F18.2°C 55.9°F13.3°C 73% 2.9 mph SW4.7 kmh SW 3.1 mph5.0 kmh 30.07 in1018.3 mb 0.00 in0.0 mm 0.00 in0.0 mm 0.00 in0.0 mm
06:09 PM 64.8°F18.2°C 55.9°F13.3°C 73% 3.1 mph WSW5.0 kmh WSW 7.2 mph11.6 kmh 30.07 in1018.3 mb 0.00 in0.0 mm 0.00 in0.0 mm 0.00 in0.0 mm
06:11 PM 64.6°F18.1°C 55.8°F13.2°C 73% 3.1 mph SW5.0 kmh SW 6.0 mph9.7 kmh 30.07 in1018.3 mb 0.00 in0.0 mm 0.00 in0.0 mm 0.00 in0.0 mm
06:13 PM 64.6°F18.1°C 56.1°F13.4°C 74% 3.6 mph NNW5.8 kmh NNW 7.2 mph11.6 kmh 30.07 in1018.3 mb 0.00 in0.0 mm 0.00 in0.0 mm 0.00 in0.0 mm
06:15 PM 64.6°F18.1°C 56.1°F13.4°C 74% 3.6 mph NNW5.8 kmh NNW 6.5 mph10.5 kmh 30.07 in1018.3 mb 0.00 in0.0 mm 0.00 in0.0 mm 0.00 in0.0 mm
06:18 PM 64.6°F18.1°C 56.1°F13.4°C 74% 3.4 mph NW5.5 kmh NW 6.0 mph9.7 kmh 30.07 in1018.3 mb 0.00 in0.0 mm 0.00 in0.0 mm 0.00 in0.0 mm
06:20 PM 64.4°F18.0°C 55.9°F13.3°C 74% 4.0 mph S6.4 kmh S 8.3 mph13.4 kmh 30.07 in1018.3 mb 0.00 in0.0 mm 0.00 in0.0 mm 0.00 in0.0 mm
06:22 PM 64.2°F17.9°C 55.8°F13.2°C 74% 3.8 mph WNW6.1 kmh WNW 6.9 mph11.1 kmh 30.07 in1018.3 mb 0.00 in0.0 mm 0.00 in0.0 mm 0.00 in0.0 mm
06:24 PM 64.0°F17.8°C 55.6°F13.1°C 74% 4.0 mph NW6.4 kmh NW 5.6 mph9.0 kmh 30.07 in1018.3 mb 0.00 in0.0 mm 0.00 in0.0 mm 0.00 in0.0 mm
06:27 PM 63.9°F17.7°C 55.4°F13.0°C 74% 4.3 mph NNW6.9 kmh NNW 7.2 mph11.6 kmh 30.08 in1018.6 mb 0.00 in0.0 mm 0.00 in0.0 mm 0.00 in0.0 mm
06:29 PM 63.7°F17.6°C 55.6°F13.1°C 75% 3.8 mph 6.1 kmh 6.3 mph10.1 kmh 30.08 in1018.6 mb 0.00 in0.0 mm 0.00 in0.0 mm 0.00 in0.0 mm
06:31 PM 63.7°F17.6°C 55.6°F13.1°C 75% 2.5 mph NE4.0 kmh NE 2.5 mph4.0 kmh 30.07 in1018.3 mb 0.00 in0.0 mm 0.00 in0.0 mm 0.00 in0.0 mm
06:33 PM 63.7°F17.6°C 55.6°F13.1°C 75% 3.4 mph NNW5.5 kmh NNW 8.3 mph13.4 kmh 30.08 in1018.6 mb 0.00 in0.0 mm 0.00 in0.0 mm 0.00 in0.0 mm
06:36 PM 63.5°F17.5°C 55.4°F13.0°C 75% 2.9 mph ESE4.7 kmh ESE 5.1 mph8.2 kmh 30.08 in1018.6 mb 0.00 in0.0 mm 0.00 in0.0 mm 0.00 in0.0 mm
06:38 PM 63.5°F17.5°C 55.4°F13.0°C 75% 2.9 mph 4.7 kmh 3.6 mph5.8 kmh 30.08 in1018.6 mb 0.00 in0.0 mm 0.00 in0.0 mm 0.00 in0.0 mm
06:40 PM 63.5°F17.5°C 55.8°F13.2°C 76% 3.4 mph 5.5 kmh 6.7 mph10.8 kmh 30.08 in1018.6 mb 0.00 in0.0 mm 0.00 in0.0 mm 0.00 in0.0 mm
06:42 PM 63.5°F17.5°C 55.8°F13.2°C 76% 4.3 mph ENE6.9 kmh ENE 8.5 mph13.7 kmh 30.07 in1018.3 mb 0.00 in0.0 mm 0.00 in0.0 mm 0.00 in0.0 mm
06:44 PM 63.7°F17.6°C 55.9°F13.3°C 76% 3.6 mph NE5.8 kmh NE 4.5 mph7.2 kmh 30.08 in1018.6 mb 0.00 in0.0 mm 0.00 in0.0 mm 0.00 in0.0 mm
06:46 PM 63.7°F17.6°C 55.9°F13.3°C 76% 3.4 mph NNW5.5 kmh NNW 5.8 mph9.3 kmh 30.08 in1018.6 mb 0.00 in0.0 mm 0.00 in0.0 mm 0.00 in0.0 mm
06:48 PM 63.3°F17.4°C 55.6°F13.1°C 76% 3.4 mph NNW5.5 kmh NNW 7.6 mph12.2 kmh 30.08 in1018.6 mb 0.00 in0.0 mm 0.00 in0.0 mm 0.00 in0.0 mm
06:51 PM 63.3°F17.4°C 55.9°F13.3°C 77% 3.8 mph NNW6.1 kmh NNW 7.4 mph11.9 kmh 30.08 in1018.6 mb 0.00 in0.0 mm 0.00 in0.0 mm 0.00 in0.0 mm
06:53 PM 63.3°F17.4°C 55.9°F13.3°C 77% 4.0 mph 6.4 kmh 7.4 mph11.9 kmh 30.08 in1018.6 mb 0.00 in0.0 mm 0.00 in0.0 mm 0.00 in0.0 mm
06:55 PM 63.3°F17.4°C 55.9°F13.3°C 77% 3.8 mph W6.1 kmh W 7.4 mph11.9 kmh 30.08 in1018.6 mb 0.00 in0.0 mm 0.00 in0.0 mm 0.00 in0.0 mm
06:57 PM 63.3°F17.4°C 56.3°F13.5°C 78% 3.6 mph NW5.8 kmh NW 7.4 mph11.9 kmh 30.08 in1018.6 mb 0.00 in0.0 mm 0.00 in0.0 mm 0.00 in0.0 mm
06:59 PM 63.1°F17.3°C 56.1°F13.4°C 78% 3.8 mph W6.1 kmh W 6.7 mph10.8 kmh 30.08 in1018.6 mb 0.00 in0.0 mm 0.00 in0.0 mm 0.00 in0.0 mm
07:02 PM 62.8°F17.1°C 55.8°F13.2°C 78% 3.1 mph 5.0 kmh 5.6 mph9.0 kmh 30.08 in1018.6 mb 0.00 in0.0 mm 0.00 in0.0 mm 0.00 in0.0 mm
07:04 PM 62.8°F17.1°C 55.8°F13.2°C 78% 3.1 mph NW5.0 kmh NW 5.6 mph9.0 kmh 30.09 in1019.0 mb 0.00 in0.0 mm 0.00 in0.0 mm 0.00 in0.0 mm
07:06 PM 62.8°F17.1°C 55.8°F13.2°C 78% 3.4 mph W5.5 kmh W 6.7 mph10.8 kmh 30.09 in1019.0 mb 0.00 in0.0 mm 0.00 in0.0 mm 0.00 in0.0 mm
07:08 PM 62.4°F16.9°C 55.8°F13.2°C 79% 3.6 mph NNW5.8 kmh NNW 7.8 mph12.6 kmh 30.09 in1019.0 mb 0.00 in0.0 mm 0.00 in0.0 mm 0.00 in0.0 mm
07:11 PM 62.4°F16.9°C 55.8°F13.2°C 79% 2.9 mph NW4.7 kmh NW 4.9 mph7.9 kmh 30.09 in1019.0 mb 0.00 in0.0 mm 0.00 in0.0 mm 0.00 in0.0 mm
07:13 PM 62.4°F16.9°C 55.8°F13.2°C 79% 2.0 mph E3.2 kmh E 2.5 mph4.0 kmh 30.09 in1019.0 mb 0.00 in0.0 mm 0.00 in0.0 mm 0.00 in0.0 mm
07:15 PM 62.2°F16.8°C 55.6°F13.1°C 79% 1.6 mph W2.6 kmh W 4.3 mph6.9 kmh 30.09 in1019.0 mb 0.00 in0.0 mm 0.00 in0.0 mm 0.00 in0.0 mm
07:17 PM 62.2°F16.8°C 55.6°F13.1°C 79% 2.5 mph NW4.0 kmh NW 7.2 mph11.6 kmh 30.09 in1019.0 mb 0.00 in0.0 mm 0.00 in0.0 mm 0.00 in0.0 mm
07:20 PM 61.9°F16.6°C 55.6°F13.1°C 80% 3.1 mph NNE5.0 kmh NNE 5.6 mph9.0 kmh 30.09 in1019.0 mb 0.00 in0.0 mm 0.00 in0.0 mm 0.00 in0.0 mm
07:22 PM 61.7°F16.5°C 55.4°F13.0°C 80% 3.6 mph NNW5.8 kmh NNW 7.2 mph11.6 kmh 30.09 in1019.0 mb 0.00 in0.0 mm 0.00 in0.0 mm 0.00 in0.0 mm
07:24 PM 61.5°F16.4°C 55.2°F12.9°C 80% 3.4 mph NNW5.5 kmh NNW 4.7 mph7.6 kmh 30.09 in1019.0 mb 0.00 in0.0 mm 0.00 in0.0 mm 0.00 in0.0 mm
07:26 PM 61.5°F16.4°C 55.6°F13.1°C 81% 3.6 mph NNW5.8 kmh NNW 8.7 mph14.0 kmh 30.09 in1019.0 mb 0.00 in0.0 mm 0.00 in0.0 mm 0.00 in0.0 mm
07:28 PM 61.3°F16.3°C 55.4°F13.0°C 81% 2.9 mph NNW4.7 kmh NNW 3.8 mph6.1 kmh 30.09 in1019.0 mb 0.00 in0.0 mm 0.00 in0.0 mm 0.00 in0.0 mm
07:31 PM 61.3°F16.3°C 55.4°F13.0°C 81% 2.2 mph NNE3.5 kmh NNE 4.0 mph6.4 kmh 30.09 in1019.0 mb 0.00 in0.0 mm 0.00 in0.0 mm 0.00 in0.0 mm
07:33 PM 61.2°F16.2°C 55.2°F12.9°C 81% 2.0 mph NNW3.2 kmh NNW 3.1 mph5.0 kmh 30.09 in1019.0 mb 0.00 in0.0 mm 0.00 in0.0 mm 0.00 in0.0 mm
07:35 PM 61.2°F16.2°C 55.2°F12.9°C 81% 2.9 mph NNE4.7 kmh NNE 6.0 mph9.7 kmh 30.09 in1019.0 mb 0.00 in0.0 mm 0.00 in0.0 mm 0.00 in0.0 mm
07:37 PM 61.0°F16.1°C 55.4°F13.0°C 82% 2.2 mph NNW3.5 kmh NNW 3.6 mph5.8 kmh 30.09 in1019.0 mb 0.00 in0.0 mm 0.00 in0.0 mm 0.00 in0.0 mm
07:39 PM 61.0°F16.1°C 55.4°F13.0°C 82% 2.0 mph 3.2 kmh 3.4 mph5.5 kmh 30.09 in1019.0 mb 0.00 in0.0 mm 0.00 in0.0 mm 0.00 in0.0 mm
07:41 PM 61.0°F16.1°C 55.4°F13.0°C 82% 1.3 mph WNW2.1 kmh WNW 2.5 mph4.0 kmh 30.09 in1019.0 mb 0.00 in0.0 mm 0.00 in0.0 mm 0.00 in0.0 mm
07:44 PM 61.0°F16.1°C 55.4°F13.0°C 82% 2.0 mph 3.2 kmh 4.0 mph6.4 kmh 30.09 in1019.0 mb 0.00 in0.0 mm 0.00 in0.0 mm 0.00 in0.0 mm
07:46 PM 60.8°F16.0°C 55.2°F12.9°C 82% 1.8 mph NNW2.9 kmh NNW 3.1 mph5.0 kmh 30.09 in1019.0 mb 0.00 in0.0 mm 0.00 in0.0 mm 0.00 in0.0 mm
07:48 PM 60.6°F15.9°C 55.0°F12.8°C 82% 1.8 mph NNW2.9 kmh NNW 2.7 mph4.3 kmh 30.09 in1019.0 mb 0.00 in0.0 mm 0.00 in0.0 mm 0.00 in0.0 mm
07:50 PM 60.6°F15.9°C 55.4°F13.0°C 83% 1.1 mph 1.8 kmh 1.3 mph2.1 kmh 30.09 in1019.0 mb 0.00 in0.0 mm 0.00 in0.0 mm 0.00 in0.0 mm
07:52 PM 60.6°F15.9°C 55.0°F12.8°C 82% 1.1 mph W1.8 kmh W 2.0 mph3.2 kmh 30.10 in1019.3 mb 0.00 in0.0 mm 0.00 in0.0 mm 0.00 in0.0 mm
07:54 PM 60.6°F15.9°C 55.4°F13.0°C 83% 0.7 mph W1.1 kmh W 0.7 mph1.1 kmh 30.09 in1019.0 mb 0.00 in0.0 mm 0.00 in0.0 mm 0.00 in0.0 mm
07:57 PM 60.6°F15.9°C 55.4°F13.0°C 83% 0.7 mph WNW1.1 kmh WNW 1.3 mph2.1 kmh 30.09 in1019.0 mb 0.00 in0.0 mm 0.00 in0.0 mm 0.00 in0.0 mm
07:59 PM 60.4°F15.8°C 55.2°F12.9°C 83% 0.4 mph NW0.6 kmh NW -- 30.09 in1019.0 mb 0.00 in0.0 mm 0.00 in0.0 mm 0.00 in0.0 mm
08:01 PM 60.4°F15.8°C 55.2°F12.9°C 83% 0.4 mph NNW0.6 kmh NNW 0.7 mph1.1 kmh 30.09 in1019.0 mb 0.00 in0.0 mm 0.00 in0.0 mm 0.00 in0.0 mm
08:04 PM 60.4°F15.8°C 55.2°F12.9°C 83% 0.4 mph 0.6 kmh 1.1 mph1.8 kmh 30.10 in1019.3 mb 0.00 in0.0 mm 0.00 in0.0 mm 0.00 in0.0 mm
08:06 PM 60.4°F15.8°C 55.2°F12.9°C 83% 0.2 mph NNW0.3 kmh NNW -- 30.10 in1019.3 mb 0.00 in0.0 mm 0.00 in0.0 mm 0.00 in0.0 mm
08:10 PM 60.1°F15.6°C 54.9°F12.7°C 83% 0.2 mph NNW0.3 kmh NNW -- 30.10 in1019.3 mb 0.00 in0.0 mm 0.00 in0.0 mm 0.00 in0.0 mm
08:13 PM 60.1°F15.6°C 54.9°F12.7°C 83% 0.2 mph SE0.3 kmh SE -- 30.10 in1019.3 mb 0.00 in0.0 mm 0.00 in0.0 mm 0.00 in0.0 mm
08:15 PM 60.1°F15.6°C 54.9°F12.7°C 83% 0.2 mph ESE0.3 kmh ESE -- 30.10 in1019.3 mb 0.00 in0.0 mm 0.00 in0.0 mm 0.00 in0.0 mm
08:17 PM 59.9°F15.5°C 54.7°F12.6°C 83% 0.2 mph SSE0.3 kmh SSE -- 30.10 in1019.3 mb 0.00 in0.0 mm 0.00 in0.0 mm 0.00 in0.0 mm
08:19 PM 59.9°F15.5°C 54.7°F12.6°C 83% 0.2 mph SSE0.3 kmh SSE -- 30.10 in1019.3 mb 0.00 in0.0 mm 0.00 in0.0 mm 0.00 in0.0 mm
08:21 PM 59.9°F15.5°C 54.7°F12.6°C 83% 0.2 mph SSE0.3 kmh SSE -- 30.10 in1019.3 mb 0.00 in0.0 mm 0.00 in0.0 mm 0.00 in0.0 mm
08:23 PM 59.9°F15.5°C 54.7°F12.6°C 83% 0.2 mph SSE0.3 kmh SSE -- 30.11 in1019.6 mb 0.00 in0.0 mm 0.00 in0.0 mm 0.00 in0.0 mm
08:26 PM 59.7°F15.4°C 54.5°F12.5°C 83% 0.2 mph SSE0.3 kmh SSE -- 30.11 in1019.6 mb 0.00 in0.0 mm 0.00 in0.0 mm 0.00 in0.0 mm
08:28 PM 59.7°F15.4°C 54.5°F12.5°C 83% 0.2 mph SSE0.3 kmh SSE -- 30.11 in1019.6 mb 0.00 in0.0 mm 0.00 in0.0 mm 0.00 in0.0 mm
08:30 PM 59.7°F15.4°C 54.9°F12.7°C 84% 0.2 mph SSE0.3 kmh SSE -- 30.11 in1019.6 mb 0.00 in0.0 mm 0.00 in0.0 mm 0.00 in0.0 mm
08:32 PM 59.7°F15.4°C 54.9°F12.7°C 84% 0.2 mph SSE0.3 kmh SSE -- 30.11 in1019.6 mb 0.00 in0.0 mm 0.00 in0.0 mm 0.00 in0.0 mm
08:34 PM 59.5°F15.3°C 54.7°F12.6°C 84% 0.2 mph SSE0.3 kmh SSE -- 30.11 in1019.6 mb 0.00 in0.0 mm 0.00 in0.0 mm 0.00 in0.0 mm
08:36 PM 59.5°F15.3°C 54.7°F12.6°C 84% 0.2 mph SSE0.3 kmh SSE -- 30.11 in1019.6 mb 0.00 in0.0 mm 0.00 in0.0 mm 0.00 in0.0 mm
08:38 PM 59.5°F15.3°C 54.7°F12.6°C 84% 0.2 mph SSE0.3 kmh SSE -- 30.11 in1019.6 mb 0.00 in0.0 mm 0.00 in0.0 mm 0.00 in0.0 mm
08:41 PM 59.4°F15.2°C 54.5°F12.5°C 84% 0.2 mph SSE0.3 kmh SSE -- 30.11 in1019.6 mb 0.00 in0.0 mm 0.00 in0.0 mm 0.00 in0.0 mm
08:43 PM 59.4°F15.2°C 54.5°F12.5°C 84% 0.2 mph SSE0.3 kmh SSE -- 30.11 in1019.6 mb 0.00 in0.0 mm 0.00 in0.0 mm 0.00 in0.0 mm
08:45 PM 59.2°F15.1°C 54.0°F12.2°C 83% 0.2 mph SSE0.3 kmh SSE -- 30.11 in1019.6 mb 0.00 in0.0 mm 0.00 in0.0 mm 0.00 in0.0 mm
08:47 PM 59.2°F15.1°C 54.0°F12.2°C 83% 0.2 mph SW0.3 kmh SW -- 30.11 in1019.6 mb 0.00 in0.0 mm 0.00 in0.0 mm 0.00 in0.0 mm
08:49 PM 59.2°F15.1°C 54.3°F12.4°C 84% 0.4 mph W0.6 kmh W 1.3 mph2.1 kmh 30.11 in1019.6 mb 0.00 in0.0 mm 0.00 in0.0 mm 0.00 in0.0 mm
08:52 PM 59.0°F15.0°C 54.1°F12.3°C 84% 0.2 mph WNW0.3 kmh WNW 1.3 mph2.1 kmh 30.11 in1019.6 mb 0.00 in0.0 mm 0.00 in0.0 mm 0.00 in0.0 mm
08:54 PM 59.0°F15.0°C 54.1°F12.3°C 84% 0.2 mph NNW0.3 kmh NNW -- 30.11 in1019.6 mb 0.00 in0.0 mm 0.00 in0.0 mm 0.00 in0.0 mm
08:56 PM 59.0°F15.0°C 54.1°F12.3°C 84% 0.2 mph NW0.3 kmh NW 0.7 mph1.1 kmh 30.11 in1019.6 mb 0.00 in0.0 mm 0.00 in0.0 mm 0.00 in0.0 mm
08:58 PM 59.0°F15.0°C 54.1°F12.3°C 84% 0.2 mph NW0.3 kmh NW -- 30.12 in1020.0 mb 0.00 in0.0 mm 0.00 in0.0 mm 0.00 in0.0 mm
09:00 PM 58.8°F14.9°C 54.0°F12.2°C 84% 0.2 mph W0.3 kmh W 0.9 mph1.4 kmh 30.12 in1020.0 mb 0.00 in0.0 mm 0.00 in0.0 mm 0.00 in0.0 mm
09:02 PM 58.8°F14.9°C 54.0°F12.2°C 84% 0.2 mph NW0.3 kmh NW 0.9 mph1.4 kmh 30.12 in1020.0 mb 0.00 in0.0 mm 0.00 in0.0 mm 0.00 in0.0 mm
09:05 PM 58.8°F14.9°C 54.0°F12.2°C 84% 0.2 mph NNW0.3 kmh NNW -- 30.12 in1020.0 mb 0.00 in0.0 mm 0.00 in0.0 mm 0.00 in0.0 mm
09:07 PM 58.8°F14.9°C 54.3°F12.4°C 85% 0.2 mph SSW0.3 kmh SSW -- 30.12 in1020.0 mb 0.00 in0.0 mm 0.00 in0.0 mm 0.00 in0.0 mm
09:09 PM 58.8°F14.9°C 54.3°F12.4°C 85% 0.2 mph NW0.3 kmh NW -- 30.13 in1020.3 mb 0.00 in0.0 mm 0.00 in0.0 mm 0.00 in0.0 mm
09:11 PM 58.8°F14.9°C 54.3°F12.4°C 85% 0.2 mph NNE0.3 kmh NNE -- 30.13 in1020.3 mb 0.00 in0.0 mm 0.00 in0.0 mm 0.00 in0.0 mm
09:14 PM 58.6°F14.8°C 54.1°F12.3°C 85% 0.2 mph NW0.3 kmh NW -- 30.13 in1020.3 mb 0.00 in0.0 mm 0.00 in0.0 mm 0.00 in0.0 mm
09:16 PM 58.6°F14.8°C 54.1°F12.3°C 85% 0.2 mph SSW0.3 kmh SSW 0.9 mph1.4 kmh 30.13 in1020.3 mb 0.00 in0.0 mm 0.00 in0.0 mm 0.00 in0.0 mm
09:18 PM 58.6°F14.8°C 54.1°F12.3°C 85% 0.2 mph SSW0.3 kmh SSW -- 30.13 in1020.3 mb 0.00 in0.0 mm 0.00 in0.0 mm 0.00 in0.0 mm
09:20 PM 58.6°F14.8°C 54.1°F12.3°C 85% 0.2 mph SE0.3 kmh SE -- 30.13 in1020.3 mb 0.00 in0.0 mm 0.00 in0.0 mm 0.00 in0.0 mm
09:22 PM 58.6°F14.8°C 54.1°F12.3°C 85% 0.2 mph WSW0.3 kmh WSW -- 30.13 in1020.3 mb 0.00 in0.0 mm 0.00 in0.0 mm 0.00 in0.0 mm
09:25 PM 58.6°F14.8°C 54.1°F12.3°C 85% 0.2 mph WSW0.3 kmh WSW -- 30.12 in1020.0 mb 0.00 in0.0 mm 0.00 in0.0 mm 0.00 in0.0 mm
09:27 PM 58.5°F14.7°C 54.0°F12.2°C 85% 0.2 mph WNW0.3 kmh WNW -- 30.13 in1020.3 mb 0.00 in0.0 mm 0.00 in0.0 mm 0.00 in0.0 mm
09:29 PM 58.6°F14.8°C 54.1°F12.3°C 85% 0.2 mph SSW0.3 kmh SSW -- 30.12 in1020.0 mb 0.00 in0.0 mm 0.00 in0.0 mm 0.00 in0.0 mm
09:32 PM 58.5°F14.7°C 54.0°F12.2°C 85% 0.2 mph SSW0.3 kmh SSW -- 30.12 in1020.0 mb 0.00 in0.0 mm 0.00 in0.0 mm 0.00 in0.0 mm
09:34 PM 58.3°F14.6°C 53.8°F12.1°C 85% 0.2 mph SSE0.3 kmh SSE -- 30.13 in1020.3 mb 0.00 in0.0 mm 0.00 in0.0 mm 0.00 in0.0 mm
09:36 PM 58.5°F14.7°C 54.0°F12.2°C 85% 0.2 mph SE0.3 kmh SE -- 30.12 in1020.0 mb 0.00 in0.0 mm 0.00 in0.0 mm 0.00 in0.0 mm
09:38 PM 58.3°F14.6°C 53.8°F12.1°C 85% 0.4 mph SE0.6 kmh SE 0.9 mph1.4 kmh 30.12 in1020.0 mb 0.00 in0.0 mm 0.00 in0.0 mm 0.00 in0.0 mm
09:41 PM 58.3°F14.6°C 53.8°F12.1°C 85% 0.4 mph ESE0.6 kmh ESE 1.1 mph1.8 kmh 30.13 in1020.3 mb 0.00 in0.0 mm 0.00 in0.0 mm 0.00 in0.0 mm
09:43 PM 58.3°F14.6°C 53.8°F12.1°C 85% 0.7 mph ESE1.1 kmh ESE 1.3 mph2.1 kmh 30.13 in1020.3 mb 0.00 in0.0 mm 0.00 in0.0 mm 0.00 in0.0 mm
09:45 PM 58.1°F14.5°C 53.6°F12.0°C 85% 1.3 mph ESE2.1 kmh ESE 2.9 mph4.7 kmh 30.13 in1020.3 mb 0.00 in0.0 mm 0.00 in0.0 mm 0.00 in0.0 mm
09:47 PM 57.9°F14.4°C 53.4°F11.9°C 85% 1.8 mph SE2.9 kmh SE 2.9 mph4.7 kmh 30.13 in1020.3 mb 0.00 in0.0 mm 0.00 in0.0 mm 0.00 in0.0 mm
09:49 PM 57.9°F14.4°C 53.8°F12.1°C 86% 1.6 mph SE2.6 kmh SE 1.8 mph2.9 kmh 30.13 in1020.3 mb 0.00 in0.0 mm 0.00 in0.0 mm 0.00 in0.0 mm
09:51 PM 57.7°F14.3°C 53.6°F12.0°C 86% 0.9 mph SE1.4 kmh SE 0.9 mph1.4 kmh 30.13 in1020.3 mb 0.00 in0.0 mm 0.00 in0.0 mm 0.00 in0.0 mm
09:53 PM 57.7°F14.3°C 53.6°F12.0°C 86% 0.4 mph ESE0.6 kmh ESE -- 30.13 in1020.3 mb 0.00 in0.0 mm 0.00 in0.0 mm 0.00 in0.0 mm
09:55 PM 57.7°F14.3°C 53.6°F12.0°C 86% 0.7 mph ESE1.1 kmh ESE 1.3 mph2.1 kmh 30.13 in1020.3 mb 0.00 in0.0 mm 0.00 in0.0 mm 0.00 in0.0 mm
09:58 PM 57.9°F14.4°C 53.8°F12.1°C 86% 0.7 mph ESE1.1 kmh ESE 1.3 mph2.1 kmh 30.13 in1020.3 mb 0.00 in0.0 mm 0.00 in0.0 mm 0.00 in0.0 mm
10:00 PM 57.9°F14.4°C 53.8°F12.1°C 86% 1.1 mph SE1.8 kmh SE 2.0 mph3.2 kmh 30.13 in1020.3 mb 0.00 in0.0 mm 0.00 in0.0 mm 0.00 in0.0 mm
10:02 PM 57.9°F14.4°C 53.8°F12.1°C 86% 0.9 mph ESE1.4 kmh ESE 1.6 mph2.6 kmh 30.13 in1020.3 mb 0.00 in0.0 mm 0.00 in0.0 mm 0.00 in0.0 mm
10:04 PM 58.1°F14.5°C 54.0°F12.2°C 86% 0.9 mph SE1.4 kmh SE 1.3 mph2.1 kmh 30.13 in1020.3 mb 0.00 in0.0 mm 0.00 in0.0 mm 0.00 in0.0 mm
10:06 PM 57.9°F14.4°C 53.8°F12.1°C 86% 1.3 mph SE2.1 kmh SE 2.5 mph4.0 kmh 30.13 in1020.3 mb 0.00 in0.0 mm 0.00 in0.0 mm 0.00 in0.0 mm
10:09 PM 57.9°F14.4°C 53.8°F12.1°C 86% 1.3 mph SE2.1 kmh SE 1.8 mph2.9 kmh 30.13 in1020.3 mb 0.00 in0.0 mm 0.00 in0.0 mm 0.00 in0.0 mm
10:11 PM 57.9°F14.4°C 53.8°F12.1°C 86% 1.1 mph SSE1.8 kmh SSE 1.3 mph2.1 kmh 30.14 in1020.7 mb 0.00 in0.0 mm 0.00 in0.0 mm 0.00 in0.0 mm
10:13 PM 57.9°F14.4°C 53.8°F12.1°C 86% 0.7 mph SSE1.1 kmh SSE 1.6 mph2.6 kmh 30.13 in1020.3 mb 0.00 in0.0 mm 0.00 in0.0 mm 0.00 in0.0 mm
10:15 PM 57.9°F14.4°C 53.8°F12.1°C 86% 0.4 mph SSE0.6 kmh SSE -- 30.13 in1020.3 mb 0.00 in0.0 mm 0.00 in0.0 mm 0.00 in0.0 mm
10:18 PM 57.9°F14.4°C 53.8°F12.1°C 86% 0.2 mph S0.3 kmh S 0.7 mph1.1 kmh 30.13 in1020.3 mb 0.00 in0.0 mm 0.00 in0.0 mm 0.00 in0.0 mm
10:20 PM 57.9°F14.4°C 53.8°F12.1°C 86% 0.2 mph SSE0.3 kmh SSE -- 30.13 in1020.3 mb 0.00 in0.0 mm 0.00 in0.0 mm 0.00 in0.0 mm
10:22 PM 57.9°F14.4°C 53.8°F12.1°C 86% 0.4 mph S0.6 kmh S 1.1 mph1.8 kmh 30.14 in1020.7 mb 0.00 in0.0 mm 0.00 in0.0 mm 0.00 in0.0 mm
10:24 PM 57.9°F14.4°C 53.8°F12.1°C 86% 0.2 mph S0.3 kmh S -- 30.13 in1020.3 mb 0.00 in0.0 mm 0.00 in0.0 mm 0.00 in0.0 mm
10:27 PM 57.9°F14.4°C 53.8°F12.1°C 86% 0.2 mph S0.3 kmh S -- 30.13 in1020.3 mb 0.00 in0.0 mm 0.00 in0.0 mm 0.00 in0.0 mm
10:29 PM 57.9°F14.4°C 53.8°F12.1°C 86% 0.2 mph SSE0.3 kmh SSE 0.9 mph1.4 kmh 30.14 in1020.7 mb 0.00 in0.0 mm 0.00 in0.0 mm 0.00 in0.0 mm
10:31 PM 57.9°F14.4°C 53.8°F12.1°C 86% 0.4 mph SSE0.6 kmh SSE 0.9 mph1.4 kmh 30.14 in1020.7 mb 0.00 in0.0 mm 0.00 in0.0 mm 0.00 in0.0 mm
10:33 PM 57.9°F14.4°C 53.8°F12.1°C 86% 0.2 mph SSE0.3 kmh SSE -- 30.13 in1020.3 mb 0.00 in0.0 mm 0.00 in0.0 mm 0.00 in0.0 mm
10:36 PM 57.9°F14.4°C 53.8°F12.1°C 86% 0.2 mph SE0.3 kmh SE -- 30.14 in1020.7 mb 0.00 in0.0 mm 0.00 in0.0 mm 0.00 in0.0 mm
10:38 PM 57.9°F14.4°C 53.8°F12.1°C 86% 0.2 mph WSW0.3 kmh WSW -- 30.14 in1020.7 mb 0.00 in0.0 mm 0.00 in0.0 mm 0.00 in0.0 mm
10:40 PM 57.9°F14.4°C 53.8°F12.1°C 86% 0.2 mph WSW0.3 kmh WSW -- 30.13 in1020.3 mb 0.00 in0.0 mm 0.00 in0.0 mm 0.00 in0.0 mm
10:42 PM 57.7°F14.3°C 53.6°F12.0°C 86% 0.2 mph SSW0.3 kmh SSW -- 30.13 in1020.3 mb 0.00 in0.0 mm 0.00 in0.0 mm 0.00 in0.0 mm
10:45 PM 57.7°F14.3°C 53.6°F12.0°C 86% 0.2 mph SSE0.3 kmh SSE -- 30.13 in1020.3 mb 0.00 in0.0 mm 0.00 in0.0 mm 0.00 in0.0 mm
10:47 PM 57.7°F14.3°C 53.6°F12.0°C 86% 0.2 mph SSE0.3 kmh SSE -- 30.13 in1020.3 mb 0.00 in0.0 mm 0.00 in0.0 mm 0.00 in0.0 mm
10:49 PM 57.7°F14.3°C 53.6°F12.0°C 86% 0.2 mph SSE0.3 kmh SSE -- 30.13 in1020.3 mb 0.00 in0.0 mm 0.00 in0.0 mm 0.00 in0.0 mm
10:51 PM 57.7°F14.3°C 53.6°F12.0°C 86% 0.2 mph SSE0.3 kmh SSE -- 30.13 in1020.3 mb 0.00 in0.0 mm 0.00 in0.0 mm 0.00 in0.0 mm
10:53 PM 57.7°F14.3°C 53.6°F12.0°C 86% 0.2 mph SSE0.3 kmh SSE -- 30.13 in1020.3 mb 0.00 in0.0 mm 0.00 in0.0 mm 0.00 in0.0 mm
10:55 PM 57.7°F14.3°C 53.6°F12.0°C 86% 0.2 mph SSE0.3 kmh SSE -- 30.13 in1020.3 mb 0.00 in0.0 mm 0.00 in0.0 mm 0.00 in0.0 mm
10:57 PM 57.6°F14.2°C 53.4°F11.9°C 86% 0.2 mph SSE0.3 kmh SSE -- 30.13 in1020.3 mb 0.00 in0.0 mm 0.00 in0.0 mm 0.00 in0.0 mm
10:59 PM 57.6°F14.2°C 53.4°F11.9°C 86% 0.2 mph SE0.3 kmh SE 0.7 mph1.1 kmh 30.13 in1020.3 mb 0.00 in0.0 mm 0.00 in0.0 mm 0.00 in0.0 mm
11:01 PM 57.6°F14.2°C 53.4°F11.9°C 86% 0.2 mph ESE0.3 kmh ESE -- 30.13 in1020.3 mb 0.00 in0.0 mm 0.00 in0.0 mm 0.00 in0.0 mm
11:04 PM 57.4°F14.1°C 53.2°F11.8°C 86% 0.2 mph ESE0.3 kmh ESE -- 30.13 in1020.3 mb 0.00 in0.0 mm 0.00 in0.0 mm 0.00 in0.0 mm
11:06 PM 57.4°F14.1°C 53.2°F11.8°C 86% 0.2 mph SSE0.3 kmh SSE 0.9 mph1.4 kmh 30.14 in1020.7 mb 0.00 in0.0 mm 0.00 in0.0 mm 0.00 in0.0 mm
11:08 PM 57.4°F14.1°C 53.2°F11.8°C 86% 0.4 mph SSE0.6 kmh SSE 1.6 mph2.6 kmh 30.13 in1020.3 mb 0.00 in0.0 mm 0.00 in0.0 mm 0.00 in0.0 mm
11:10 PM 57.0°F13.9°C 53.2°F11.8°C 87% 1.1 mph SE1.8 kmh SE 2.5 mph4.0 kmh 30.14 in1020.7 mb 0.00 in0.0 mm 0.00 in0.0 mm 0.00 in0.0 mm
11:13 PM 57.0°F13.9°C 53.2°F11.8°C 87% 2.0 mph SE3.2 kmh SE 3.1 mph5.0 kmh 30.14 in1020.7 mb 0.00 in0.0 mm 0.00 in0.0 mm 0.00 in0.0 mm
11:15 PM 57.0°F13.9°C 53.2°F11.8°C 87% 2.2 mph SE3.5 kmh SE 2.5 mph4.0 kmh 30.13 in1020.3 mb 0.00 in0.0 mm 0.00 in0.0 mm 0.00 in0.0 mm
11:17 PM 57.0°F13.9°C 53.2°F11.8°C 87% 2.0 mph ESE3.2 kmh ESE 2.9 mph4.7 kmh 30.13 in1020.3 mb 0.00 in0.0 mm 0.00 in0.0 mm 0.00 in0.0 mm
11:19 PM 57.0°F13.9°C 53.2°F11.8°C 87% 1.8 mph SSE2.9 kmh SSE 2.5 mph4.0 kmh 30.13 in1020.3 mb 0.00 in0.0 mm 0.00 in0.0 mm 0.00 in0.0 mm
11:22 PM 57.0°F13.9°C 53.2°F11.8°C 87% 1.3 mph SSE2.1 kmh SSE 1.3 mph2.1 kmh 30.13 in1020.3 mb 0.00 in0.0 mm 0.00 in0.0 mm 0.00 in0.0 mm
11:24 PM 57.0°F13.9°C 53.2°F11.8°C 87% 1.1 mph SE1.8 kmh SE 1.6 mph2.6 kmh 30.14 in1020.7 mb 0.00 in0.0 mm 0.00 in0.0 mm 0.00 in0.0 mm
11:26 PM 56.8°F13.8°C 53.1°F11.7°C 87% 1.1 mph SSE1.8 kmh SSE 2.5 mph4.0 kmh 30.14 in1020.7 mb 0.00 in0.0 mm 0.00 in0.0 mm 0.00 in0.0 mm
11:28 PM 56.8°F13.8°C 53.1°F11.7°C 87% 1.1 mph SSE1.8 kmh SSE 1.6 mph2.6 kmh 30.14 in1020.7 mb 0.00 in0.0 mm 0.00 in0.0 mm 0.00 in0.0 mm
11:30 PM 56.8°F13.8°C 53.1°F11.7°C 87% 0.9 mph SSE1.4 kmh SSE 1.6 mph2.6 kmh 30.14 in1020.7 mb 0.00 in0.0 mm 0.00 in0.0 mm 0.00 in0.0 mm
11:33 PM 56.7°F13.7°C 52.9°F11.6°C 87% 0.7 mph SSE1.1 kmh SSE 1.1 mph1.8 kmh 30.14 in1020.7 mb 0.00 in0.0 mm 0.00 in0.0 mm 0.00 in0.0 mm
11:35 PM 56.5°F13.6°C 52.7°F11.5°C 87% 0.9 mph SSE1.4 kmh SSE 1.6 mph2.6 kmh 30.14 in1020.7 mb 0.00 in0.0 mm 0.00 in0.0 mm 0.00 in0.0 mm
11:37 PM 56.5°F13.6°C 52.7°F11.5°C 87% 0.9 mph SSE1.4 kmh SSE 1.6 mph2.6 kmh 30.13 in1020.3 mb 0.00 in0.0 mm 0.00 in0.0 mm 0.00 in0.0 mm
11:39 PM 56.5°F13.6°C 52.9°F11.6°C 88% 1.3 mph SSE2.1 kmh SSE 1.8 mph2.9 kmh 30.13 in1020.3 mb 0.00 in0.0 mm 0.00 in0.0 mm 0.00 in0.0 mm
11:41 PM 56.3°F13.5°C 52.9°F11.6°C 88% 1.3 mph SE2.1 kmh SE 1.8 mph2.9 kmh 30.14 in1020.7 mb 0.00 in0.0 mm 0.00 in0.0 mm 0.00 in0.0 mm
11:44 PM 56.1°F13.4°C 52.7°F11.5°C 88% 1.3 mph SSE2.1 kmh SSE 1.8 mph2.9 kmh 30.14 in1020.7 mb 0.00 in0.0 mm 0.00 in0.0 mm 0.00 in0.0 mm
11:46 PM 56.1°F13.4°C 52.7°F11.5°C 88% 1.3 mph SE2.1 kmh SE 2.0 mph3.2 kmh 30.14 in1020.7 mb 0.00 in0.0 mm 0.00 in0.0 mm 0.00 in0.0 mm
11:48 PM 55.9°F13.3°C 52.5°F11.4°C 88% 1.1 mph SSE1.8 kmh SSE 1.6 mph2.6 kmh 30.14 in1020.7 mb 0.00 in0.0 mm 0.00 in0.0 mm 0.00 in0.0 mm
11:50 PM 55.9°F13.3°C 52.5°F11.4°C 88% 0.7 mph SE1.1 kmh SE 0.9 mph1.4 kmh 30.14 in1020.7 mb 0.00 in0.0 mm 0.00 in0.0 mm 0.00 in0.0 mm
11:52 PM 55.9°F13.3°C 52.5°F11.4°C 88% 0.7 mph SE1.1 kmh SE 1.6 mph2.6 kmh 30.14 in1020.7 mb 0.00 in0.0 mm 0.00 in0.0 mm 0.00 in0.0 mm
11:55 PM 55.9°F13.3°C 52.5°F11.4°C 88% 1.1 mph SSW1.8 kmh SSW 2.5 mph4.0 kmh 30.14 in1020.7 mb 0.00 in0.0 mm 0.00 in0.0 mm 0.00 in0.0 mm
11:57 PM 55.9°F13.3°C 52.5°F11.4°C 88% 1.6 mph SSE2.6 kmh SSE 2.5 mph4.0 kmh 30.14 in1020.7 mb 0.00 in0.0 mm 0.00 in0.0 mm 0.00 in0.0 mm
11:59 PM 55.8°F13.2°C 52.3°F11.3°C 88% 1.6 mph SSE2.6 kmh SSE 1.8 mph2.9 kmh 30.14 in1020.7 mb 0.00 in0.0 mm 0.00 in0.0 mm 0.00 in0.0 mm